<?xml version="1.0" encoding="UTF-8" standalone="no" ?>
<gpx xmlns="http://www.topografix.com/GPX/1/1" xmlns:xsi="http://www.w3.org/2001/XMLSchema-instance" xsi:schemaLocation="http://www.topografix.com/GPX/1/1 http://www.topografix.com/GPX/1/1/gpx.xsd" version="1.1" creator="VisuGPX - https://www.visugpx.com">
  <metadata>
    <name>Marnoz - Château de Vaulgrenant - La Chapelle-sur-Furieuse</name>
    <desc><![CDATA[Randonnée pédestre effectuée le 8 octobre 2020]]></desc>
  </metadata>
  <trk>
    <name><![CDATA[8 oct. 2020 à 08:46:05]]></name>
    <trkseg>
      <trkpt lat="46.95911" lon="5.83632">
        <ele>227</ele>
        <time>2020-10-08T06:46:05Z</time>
      </trkpt>
      <trkpt lat="46.95911" lon="5.83632">
        <ele>227</ele>
        <time>2020-10-08T06:46:06Z</time>
      </trkpt>
      <trkpt lat="46.95908" lon="5.83642">
        <ele>227</ele>
        <time>2020-10-08T06:47:13Z</time>
      </trkpt>
      <trkpt lat="46.95915" lon="5.83646">
        <ele>228</ele>
        <time>2020-10-08T06:49:44Z</time>
      </trkpt>
      <trkpt lat="46.95923" lon="5.8365">
        <ele>228</ele>
        <time>2020-10-08T06:49:53Z</time>
      </trkpt>
      <trkpt lat="46.95935" lon="5.83657">
        <ele>228</ele>
        <time>2020-10-08T06:50:06Z</time>
      </trkpt>
      <trkpt lat="46.95938" lon="5.83664">
        <ele>228</ele>
        <time>2020-10-08T06:50:10Z</time>
      </trkpt>
      <trkpt lat="46.95942" lon="5.8367">
        <ele>228</ele>
        <time>2020-10-08T06:50:22Z</time>
      </trkpt>
      <trkpt lat="46.95946" lon="5.83679">
        <ele>228</ele>
        <time>2020-10-08T06:50:40Z</time>
      </trkpt>
      <trkpt lat="46.95945" lon="5.83688">
        <ele>228</ele>
        <time>2020-10-08T06:50:52Z</time>
      </trkpt>
      <trkpt lat="46.9595" lon="5.83694">
        <ele>228</ele>
        <time>2020-10-08T06:50:57Z</time>
      </trkpt>
      <trkpt lat="46.95955" lon="5.83711">
        <ele>228</ele>
        <time>2020-10-08T06:51:07Z</time>
      </trkpt>
      <trkpt lat="46.95961" lon="5.83718">
        <ele>228</ele>
        <time>2020-10-08T06:51:38Z</time>
      </trkpt>
      <trkpt lat="46.95967" lon="5.83716">
        <ele>228</ele>
        <time>2020-10-08T06:51:43Z</time>
      </trkpt>
      <trkpt lat="46.96003" lon="5.83721">
        <ele>230</ele>
        <time>2020-10-08T06:52:13Z</time>
      </trkpt>
      <trkpt lat="46.96016" lon="5.83726">
        <ele>231</ele>
        <time>2020-10-08T06:52:24Z</time>
      </trkpt>
      <trkpt lat="46.96022" lon="5.83735">
        <ele>232</ele>
        <time>2020-10-08T06:52:33Z</time>
      </trkpt>
      <trkpt lat="46.96032" lon="5.83743">
        <ele>232</ele>
        <time>2020-10-08T06:52:44Z</time>
      </trkpt>
      <trkpt lat="46.96037" lon="5.83747">
        <ele>233</ele>
        <time>2020-10-08T06:52:51Z</time>
      </trkpt>
      <trkpt lat="46.96059" lon="5.83738">
        <ele>235</ele>
        <time>2020-10-08T06:53:12Z</time>
      </trkpt>
      <trkpt lat="46.9607" lon="5.83727">
        <ele>236</ele>
        <time>2020-10-08T06:53:26Z</time>
      </trkpt>
      <trkpt lat="46.96082" lon="5.83721">
        <ele>238</ele>
        <time>2020-10-08T06:53:42Z</time>
      </trkpt>
      <trkpt lat="46.96087" lon="5.83717">
        <ele>239</ele>
        <time>2020-10-08T06:53:48Z</time>
      </trkpt>
      <trkpt lat="46.96091" lon="5.8371">
        <ele>240</ele>
        <time>2020-10-08T06:53:54Z</time>
      </trkpt>
      <trkpt lat="46.961" lon="5.837">
        <ele>241</ele>
        <time>2020-10-08T06:54:02Z</time>
      </trkpt>
      <trkpt lat="46.96106" lon="5.83697">
        <ele>241</ele>
        <time>2020-10-08T06:54:08Z</time>
      </trkpt>
      <trkpt lat="46.96112" lon="5.83692">
        <ele>242</ele>
        <time>2020-10-08T06:54:14Z</time>
      </trkpt>
      <trkpt lat="46.96117" lon="5.83689">
        <ele>243</ele>
        <time>2020-10-08T06:54:19Z</time>
      </trkpt>
      <trkpt lat="46.96141" lon="5.83689">
        <ele>244</ele>
        <time>2020-10-08T06:54:39Z</time>
      </trkpt>
      <trkpt lat="46.96149" lon="5.83693">
        <ele>244</ele>
        <time>2020-10-08T06:54:46Z</time>
      </trkpt>
      <trkpt lat="46.96153" lon="5.83699">
        <ele>245</ele>
        <time>2020-10-08T06:54:52Z</time>
      </trkpt>
      <trkpt lat="46.96159" lon="5.83701">
        <ele>244</ele>
        <time>2020-10-08T06:54:58Z</time>
      </trkpt>
      <trkpt lat="46.96167" lon="5.8371">
        <ele>246</ele>
        <time>2020-10-08T06:55:12Z</time>
      </trkpt>
      <trkpt lat="46.96175" lon="5.8371">
        <ele>247</ele>
        <time>2020-10-08T06:55:18Z</time>
      </trkpt>
      <trkpt lat="46.96174" lon="5.83711">
        <ele>247</ele>
        <time>2020-10-08T06:56:32Z</time>
      </trkpt>
      <trkpt lat="46.96162" lon="5.83708">
        <ele>246</ele>
        <time>2020-10-08T06:56:42Z</time>
      </trkpt>
      <trkpt lat="46.96154" lon="5.83709">
        <ele>246</ele>
        <time>2020-10-08T06:56:51Z</time>
      </trkpt>
      <trkpt lat="46.9615" lon="5.83717">
        <ele>246</ele>
        <time>2020-10-08T06:56:59Z</time>
      </trkpt>
      <trkpt lat="46.96149" lon="5.83726">
        <ele>246</ele>
        <time>2020-10-08T06:57:05Z</time>
      </trkpt>
      <trkpt lat="46.96145" lon="5.83733">
        <ele>247</ele>
        <time>2020-10-08T06:57:10Z</time>
      </trkpt>
      <trkpt lat="46.96144" lon="5.8374">
        <ele>247</ele>
        <time>2020-10-08T06:57:16Z</time>
      </trkpt>
      <trkpt lat="46.96145" lon="5.8375">
        <ele>248</ele>
        <time>2020-10-08T06:57:22Z</time>
      </trkpt>
      <trkpt lat="46.96147" lon="5.83759">
        <ele>252</ele>
        <time>2020-10-08T06:57:49Z</time>
      </trkpt>
      <trkpt lat="46.96154" lon="5.83766">
        <ele>253</ele>
        <time>2020-10-08T06:57:58Z</time>
      </trkpt>
      <trkpt lat="46.96163" lon="5.83772">
        <ele>255</ele>
        <time>2020-10-08T06:58:16Z</time>
      </trkpt>
      <trkpt lat="46.96178" lon="5.83758">
        <ele>261</ele>
        <time>2020-10-08T06:58:53Z</time>
      </trkpt>
      <trkpt lat="46.96206" lon="5.83756">
        <ele>267</ele>
        <time>2020-10-08T06:59:37Z</time>
      </trkpt>
      <trkpt lat="46.96221" lon="5.83746">
        <ele>270</ele>
        <time>2020-10-08T06:59:52Z</time>
      </trkpt>
      <trkpt lat="46.96228" lon="5.83742">
        <ele>271</ele>
        <time>2020-10-08T07:00:02Z</time>
      </trkpt>
      <trkpt lat="46.96258" lon="5.83729">
        <ele>275</ele>
        <time>2020-10-08T07:00:30Z</time>
      </trkpt>
      <trkpt lat="46.96283" lon="5.83729">
        <ele>277</ele>
        <time>2020-10-08T07:00:55Z</time>
      </trkpt>
      <trkpt lat="46.9629" lon="5.83725">
        <ele>278</ele>
        <time>2020-10-08T07:01:00Z</time>
      </trkpt>
      <trkpt lat="46.96304" lon="5.83717">
        <ele>283</ele>
        <time>2020-10-08T07:01:34Z</time>
      </trkpt>
      <trkpt lat="46.96319" lon="5.83716">
        <ele>286</ele>
        <time>2020-10-08T07:01:50Z</time>
      </trkpt>
      <trkpt lat="46.96325" lon="5.83712">
        <ele>287</ele>
        <time>2020-10-08T07:01:58Z</time>
      </trkpt>
      <trkpt lat="46.96333" lon="5.83713">
        <ele>288</ele>
        <time>2020-10-08T07:02:04Z</time>
      </trkpt>
      <trkpt lat="46.96347" lon="5.83699">
        <ele>290</ele>
        <time>2020-10-08T07:02:21Z</time>
      </trkpt>
      <trkpt lat="46.9638" lon="5.837">
        <ele>296</ele>
        <time>2020-10-08T07:02:55Z</time>
      </trkpt>
      <trkpt lat="46.96387" lon="5.83703">
        <ele>298</ele>
        <time>2020-10-08T07:03:09Z</time>
      </trkpt>
      <trkpt lat="46.96393" lon="5.83702">
        <ele>300</ele>
        <time>2020-10-08T07:03:21Z</time>
      </trkpt>
      <trkpt lat="46.96399" lon="5.83704">
        <ele>305</ele>
        <time>2020-10-08T07:03:51Z</time>
      </trkpt>
      <trkpt lat="46.96431" lon="5.83703">
        <ele>309</ele>
        <time>2020-10-08T07:04:20Z</time>
      </trkpt>
      <trkpt lat="46.96435" lon="5.83697">
        <ele>311</ele>
        <time>2020-10-08T07:04:26Z</time>
      </trkpt>
      <trkpt lat="46.9644" lon="5.83692">
        <ele>312</ele>
        <time>2020-10-08T07:04:34Z</time>
      </trkpt>
      <trkpt lat="46.96448" lon="5.83686">
        <ele>315</ele>
        <time>2020-10-08T07:04:54Z</time>
      </trkpt>
      <trkpt lat="46.96453" lon="5.8369">
        <ele>316</ele>
        <time>2020-10-08T07:05:00Z</time>
      </trkpt>
      <trkpt lat="46.96462" lon="5.83693">
        <ele>317</ele>
        <time>2020-10-08T07:05:10Z</time>
      </trkpt>
      <trkpt lat="46.96468" lon="5.83691">
        <ele>319</ele>
        <time>2020-10-08T07:05:19Z</time>
      </trkpt>
      <trkpt lat="46.96476" lon="5.83692">
        <ele>319</ele>
        <time>2020-10-08T07:05:27Z</time>
      </trkpt>
      <trkpt lat="46.96484" lon="5.83691">
        <ele>321</ele>
        <time>2020-10-08T07:05:41Z</time>
      </trkpt>
      <trkpt lat="46.96489" lon="5.83684">
        <ele>321</ele>
        <time>2020-10-08T07:06:17Z</time>
      </trkpt>
      <trkpt lat="46.96494" lon="5.83685">
        <ele>323</ele>
        <time>2020-10-08T07:08:36Z</time>
      </trkpt>
      <trkpt lat="46.96495" lon="5.83677">
        <ele>324</ele>
        <time>2020-10-08T07:09:42Z</time>
      </trkpt>
      <trkpt lat="46.96527" lon="5.83646">
        <ele>329</ele>
        <time>2020-10-08T07:10:21Z</time>
      </trkpt>
      <trkpt lat="46.96536" lon="5.83632">
        <ele>332</ele>
        <time>2020-10-08T07:10:37Z</time>
      </trkpt>
      <trkpt lat="46.96546" lon="5.83627">
        <ele>335</ele>
        <time>2020-10-08T07:10:55Z</time>
      </trkpt>
      <trkpt lat="46.96555" lon="5.83625">
        <ele>336</ele>
        <time>2020-10-08T07:11:01Z</time>
      </trkpt>
      <trkpt lat="46.96575" lon="5.83607">
        <ele>342</ele>
        <time>2020-10-08T07:11:43Z</time>
      </trkpt>
      <trkpt lat="46.96581" lon="5.83594">
        <ele>343</ele>
        <time>2020-10-08T07:12:02Z</time>
      </trkpt>
      <trkpt lat="46.96586" lon="5.8359">
        <ele>343</ele>
        <time>2020-10-08T07:12:07Z</time>
      </trkpt>
      <trkpt lat="46.96592" lon="5.83575">
        <ele>344</ele>
        <time>2020-10-08T07:12:16Z</time>
      </trkpt>
      <trkpt lat="46.96597" lon="5.83571">
        <ele>344</ele>
        <time>2020-10-08T07:12:21Z</time>
      </trkpt>
      <trkpt lat="46.96607" lon="5.83555">
        <ele>346</ele>
        <time>2020-10-08T07:12:39Z</time>
      </trkpt>
      <trkpt lat="46.96615" lon="5.83536">
        <ele>347</ele>
        <time>2020-10-08T07:12:49Z</time>
      </trkpt>
      <trkpt lat="46.96614" lon="5.83521">
        <ele>348</ele>
        <time>2020-10-08T07:13:03Z</time>
      </trkpt>
      <trkpt lat="46.96613" lon="5.8351">
        <ele>349</ele>
        <time>2020-10-08T07:13:09Z</time>
      </trkpt>
      <trkpt lat="46.96614" lon="5.83499">
        <ele>349</ele>
        <time>2020-10-08T07:13:17Z</time>
      </trkpt>
      <trkpt lat="46.9661" lon="5.83487">
        <ele>350</ele>
        <time>2020-10-08T07:13:27Z</time>
      </trkpt>
      <trkpt lat="46.96608" lon="5.83473">
        <ele>351</ele>
        <time>2020-10-08T07:13:35Z</time>
      </trkpt>
      <trkpt lat="46.9661" lon="5.83463">
        <ele>351</ele>
        <time>2020-10-08T07:13:44Z</time>
      </trkpt>
      <trkpt lat="46.96608" lon="5.83441">
        <ele>352</ele>
        <time>2020-10-08T07:13:59Z</time>
      </trkpt>
      <trkpt lat="46.96624" lon="5.83395">
        <ele>356</ele>
        <time>2020-10-08T07:14:31Z</time>
      </trkpt>
      <trkpt lat="46.96627" lon="5.83386">
        <ele>356</ele>
        <time>2020-10-08T07:14:37Z</time>
      </trkpt>
      <trkpt lat="46.96649" lon="5.83356">
        <ele>360</ele>
        <time>2020-10-08T07:15:09Z</time>
      </trkpt>
      <trkpt lat="46.9667" lon="5.83323">
        <ele>364</ele>
        <time>2020-10-08T07:15:43Z</time>
      </trkpt>
      <trkpt lat="46.96684" lon="5.83309">
        <ele>363</ele>
        <time>2020-10-08T07:15:58Z</time>
      </trkpt>
      <trkpt lat="46.96692" lon="5.83291">
        <ele>363</ele>
        <time>2020-10-08T07:16:10Z</time>
      </trkpt>
      <trkpt lat="46.96693" lon="5.83278">
        <ele>362</ele>
        <time>2020-10-08T07:16:24Z</time>
      </trkpt>
      <trkpt lat="46.967" lon="5.8327">
        <ele>362</ele>
        <time>2020-10-08T07:16:33Z</time>
      </trkpt>
      <trkpt lat="46.96703" lon="5.83263">
        <ele>362</ele>
        <time>2020-10-08T07:16:37Z</time>
      </trkpt>
      <trkpt lat="46.96706" lon="5.83254">
        <ele>361</ele>
        <time>2020-10-08T07:16:41Z</time>
      </trkpt>
      <trkpt lat="46.96709" lon="5.83245">
        <ele>360</ele>
        <time>2020-10-08T07:16:46Z</time>
      </trkpt>
      <trkpt lat="46.96712" lon="5.83239">
        <ele>360</ele>
        <time>2020-10-08T07:16:52Z</time>
      </trkpt>
      <trkpt lat="46.96717" lon="5.83197">
        <ele>359</ele>
        <time>2020-10-08T07:17:15Z</time>
      </trkpt>
      <trkpt lat="46.96722" lon="5.83186">
        <ele>358</ele>
        <time>2020-10-08T07:17:25Z</time>
      </trkpt>
      <trkpt lat="46.96725" lon="5.83176">
        <ele>357</ele>
        <time>2020-10-08T07:17:32Z</time>
      </trkpt>
      <trkpt lat="46.96732" lon="5.83169">
        <ele>357</ele>
        <time>2020-10-08T07:17:39Z</time>
      </trkpt>
      <trkpt lat="46.9674" lon="5.83155">
        <ele>356</ele>
        <time>2020-10-08T07:17:50Z</time>
      </trkpt>
      <trkpt lat="46.96759" lon="5.83106">
        <ele>354</ele>
        <time>2020-10-08T07:18:24Z</time>
      </trkpt>
      <trkpt lat="46.96765" lon="5.83097">
        <ele>354</ele>
        <time>2020-10-08T07:18:50Z</time>
      </trkpt>
      <trkpt lat="46.96767" lon="5.83106">
        <ele>355</ele>
        <time>2020-10-08T07:19:20Z</time>
      </trkpt>
      <trkpt lat="46.9677" lon="5.83115">
        <ele>355</ele>
        <time>2020-10-08T07:19:27Z</time>
      </trkpt>
      <trkpt lat="46.96771" lon="5.83124">
        <ele>356</ele>
        <time>2020-10-08T07:19:32Z</time>
      </trkpt>
      <trkpt lat="46.96775" lon="5.83132">
        <ele>357</ele>
        <time>2020-10-08T07:19:38Z</time>
      </trkpt>
      <trkpt lat="46.96777" lon="5.8314">
        <ele>358</ele>
        <time>2020-10-08T07:19:44Z</time>
      </trkpt>
      <trkpt lat="46.96806" lon="5.83174">
        <ele>360</ele>
        <time>2020-10-08T07:20:20Z</time>
      </trkpt>
      <trkpt lat="46.96831" lon="5.83187">
        <ele>361</ele>
        <time>2020-10-08T07:20:51Z</time>
      </trkpt>
      <trkpt lat="46.9684" lon="5.83182">
        <ele>361</ele>
        <time>2020-10-08T07:21:00Z</time>
      </trkpt>
      <trkpt lat="46.96851" lon="5.83174">
        <ele>361</ele>
        <time>2020-10-08T07:21:13Z</time>
      </trkpt>
      <trkpt lat="46.96861" lon="5.83168">
        <ele>360</ele>
        <time>2020-10-08T07:21:27Z</time>
      </trkpt>
      <trkpt lat="46.96871" lon="5.83162">
        <ele>359</ele>
        <time>2020-10-08T07:21:40Z</time>
      </trkpt>
      <trkpt lat="46.9689" lon="5.8316">
        <ele>359</ele>
        <time>2020-10-08T07:22:01Z</time>
      </trkpt>
      <trkpt lat="46.96912" lon="5.83165">
        <ele>358</ele>
        <time>2020-10-08T07:22:21Z</time>
      </trkpt>
      <trkpt lat="46.96926" lon="5.83178">
        <ele>357</ele>
        <time>2020-10-08T07:22:39Z</time>
      </trkpt>
      <trkpt lat="46.96932" lon="5.83186">
        <ele>357</ele>
        <time>2020-10-08T07:22:48Z</time>
      </trkpt>
      <trkpt lat="46.96942" lon="5.83195">
        <ele>356</ele>
        <time>2020-10-08T07:23:03Z</time>
      </trkpt>
      <trkpt lat="46.96977" lon="5.83205">
        <ele>354</ele>
        <time>2020-10-08T07:23:31Z</time>
      </trkpt>
      <trkpt lat="46.9698" lon="5.83211">
        <ele>353</ele>
        <time>2020-10-08T07:23:36Z</time>
      </trkpt>
      <trkpt lat="46.96986" lon="5.83214">
        <ele>353</ele>
        <time>2020-10-08T07:23:41Z</time>
      </trkpt>
      <trkpt lat="46.96991" lon="5.83221">
        <ele>353</ele>
        <time>2020-10-08T07:23:45Z</time>
      </trkpt>
      <trkpt lat="46.96997" lon="5.83225">
        <ele>353</ele>
        <time>2020-10-08T07:23:49Z</time>
      </trkpt>
      <trkpt lat="46.97015" lon="5.83248">
        <ele>350</ele>
        <time>2020-10-08T07:24:15Z</time>
      </trkpt>
      <trkpt lat="46.97018" lon="5.83255">
        <ele>349</ele>
        <time>2020-10-08T07:24:21Z</time>
      </trkpt>
      <trkpt lat="46.9702" lon="5.83263">
        <ele>349</ele>
        <time>2020-10-08T07:24:26Z</time>
      </trkpt>
      <trkpt lat="46.97028" lon="5.8327">
        <ele>348</ele>
        <time>2020-10-08T07:24:36Z</time>
      </trkpt>
      <trkpt lat="46.97036" lon="5.83285">
        <ele>347</ele>
        <time>2020-10-08T07:24:46Z</time>
      </trkpt>
      <trkpt lat="46.97054" lon="5.83294">
        <ele>346</ele>
        <time>2020-10-08T07:25:05Z</time>
      </trkpt>
      <trkpt lat="46.97085" lon="5.83323">
        <ele>344</ele>
        <time>2020-10-08T07:25:36Z</time>
      </trkpt>
      <trkpt lat="46.97113" lon="5.8335">
        <ele>343</ele>
        <time>2020-10-08T07:26:11Z</time>
      </trkpt>
      <trkpt lat="46.97117" lon="5.83356">
        <ele>343</ele>
        <time>2020-10-08T07:26:16Z</time>
      </trkpt>
      <trkpt lat="46.97121" lon="5.83365">
        <ele>343</ele>
        <time>2020-10-08T07:26:24Z</time>
      </trkpt>
      <trkpt lat="46.97119" lon="5.83373">
        <ele>343</ele>
        <time>2020-10-08T07:26:29Z</time>
      </trkpt>
      <trkpt lat="46.97129" lon="5.83374">
        <ele>344</ele>
        <time>2020-10-08T07:28:00Z</time>
      </trkpt>
      <trkpt lat="46.97149" lon="5.8339">
        <ele>343</ele>
        <time>2020-10-08T07:28:22Z</time>
      </trkpt>
      <trkpt lat="46.97155" lon="5.83389">
        <ele>343</ele>
        <time>2020-10-08T07:28:27Z</time>
      </trkpt>
      <trkpt lat="46.97161" lon="5.83391">
        <ele>343</ele>
        <time>2020-10-08T07:28:35Z</time>
      </trkpt>
      <trkpt lat="46.97183" lon="5.83376">
        <ele>342</ele>
        <time>2020-10-08T07:28:57Z</time>
      </trkpt>
      <trkpt lat="46.97185" lon="5.83369">
        <ele>342</ele>
        <time>2020-10-08T07:29:35Z</time>
      </trkpt>
      <trkpt lat="46.9719" lon="5.83377">
        <ele>343</ele>
        <time>2020-10-08T07:29:47Z</time>
      </trkpt>
      <trkpt lat="46.97198" lon="5.83378">
        <ele>344</ele>
        <time>2020-10-08T07:30:11Z</time>
      </trkpt>
      <trkpt lat="46.97225" lon="5.83395">
        <ele>346</ele>
        <time>2020-10-08T07:30:33Z</time>
      </trkpt>
      <trkpt lat="46.97249" lon="5.834">
        <ele>349</ele>
        <time>2020-10-08T07:30:57Z</time>
      </trkpt>
      <trkpt lat="46.97254" lon="5.83399">
        <ele>350</ele>
        <time>2020-10-08T07:31:02Z</time>
      </trkpt>
      <trkpt lat="46.97271" lon="5.83386">
        <ele>351</ele>
        <time>2020-10-08T07:31:19Z</time>
      </trkpt>
      <trkpt lat="46.97285" lon="5.8338">
        <ele>352</ele>
        <time>2020-10-08T07:31:32Z</time>
      </trkpt>
      <trkpt lat="46.97289" lon="5.83374">
        <ele>353</ele>
        <time>2020-10-08T07:31:38Z</time>
      </trkpt>
      <trkpt lat="46.97306" lon="5.83368">
        <ele>353</ele>
        <time>2020-10-08T07:31:54Z</time>
      </trkpt>
      <trkpt lat="46.97321" lon="5.83358">
        <ele>354</ele>
        <time>2020-10-08T07:32:12Z</time>
      </trkpt>
      <trkpt lat="46.97353" lon="5.83355">
        <ele>355</ele>
        <time>2020-10-08T07:32:37Z</time>
      </trkpt>
      <trkpt lat="46.97363" lon="5.83359">
        <ele>356</ele>
        <time>2020-10-08T07:32:46Z</time>
      </trkpt>
      <trkpt lat="46.97369" lon="5.83364">
        <ele>356</ele>
        <time>2020-10-08T07:32:51Z</time>
      </trkpt>
      <trkpt lat="46.97374" lon="5.83366">
        <ele>356</ele>
        <time>2020-10-08T07:32:54Z</time>
      </trkpt>
      <trkpt lat="46.97379" lon="5.8337">
        <ele>356</ele>
        <time>2020-10-08T07:32:58Z</time>
      </trkpt>
      <trkpt lat="46.97387" lon="5.83369">
        <ele>358</ele>
        <time>2020-10-08T07:33:07Z</time>
      </trkpt>
      <trkpt lat="46.97393" lon="5.83372">
        <ele>358</ele>
        <time>2020-10-08T07:33:13Z</time>
      </trkpt>
      <trkpt lat="46.97398" lon="5.83375">
        <ele>358</ele>
        <time>2020-10-08T07:33:18Z</time>
      </trkpt>
      <trkpt lat="46.97403" lon="5.8338">
        <ele>358</ele>
        <time>2020-10-08T07:33:22Z</time>
      </trkpt>
      <trkpt lat="46.97417" lon="5.83386">
        <ele>357</ele>
        <time>2020-10-08T07:33:38Z</time>
      </trkpt>
      <trkpt lat="46.97446" lon="5.83401">
        <ele>358</ele>
        <time>2020-10-08T07:34:03Z</time>
      </trkpt>
      <trkpt lat="46.97453" lon="5.83405">
        <ele>358</ele>
        <time>2020-10-08T07:34:10Z</time>
      </trkpt>
      <trkpt lat="46.9746" lon="5.8341">
        <ele>359</ele>
        <time>2020-10-08T07:34:17Z</time>
      </trkpt>
      <trkpt lat="46.97483" lon="5.83429">
        <ele>357</ele>
        <time>2020-10-08T07:34:49Z</time>
      </trkpt>
      <trkpt lat="46.97491" lon="5.83439">
        <ele>355</ele>
        <time>2020-10-08T07:35:01Z</time>
      </trkpt>
      <trkpt lat="46.97499" lon="5.83441">
        <ele>353</ele>
        <time>2020-10-08T07:35:15Z</time>
      </trkpt>
      <trkpt lat="46.97523" lon="5.83424">
        <ele>350</ele>
        <time>2020-10-08T07:35:42Z</time>
      </trkpt>
      <trkpt lat="46.97532" lon="5.83421">
        <ele>350</ele>
        <time>2020-10-08T07:35:48Z</time>
      </trkpt>
      <trkpt lat="46.97545" lon="5.83426">
        <ele>350</ele>
        <time>2020-10-08T07:35:56Z</time>
      </trkpt>
      <trkpt lat="46.9755" lon="5.8343">
        <ele>349</ele>
        <time>2020-10-08T07:36:01Z</time>
      </trkpt>
      <trkpt lat="46.97556" lon="5.8343">
        <ele>349</ele>
        <time>2020-10-08T07:36:04Z</time>
      </trkpt>
      <trkpt lat="46.97566" lon="5.83434">
        <ele>348</ele>
        <time>2020-10-08T07:36:11Z</time>
      </trkpt>
      <trkpt lat="46.97578" lon="5.83436">
        <ele>348</ele>
        <time>2020-10-08T07:36:19Z</time>
      </trkpt>
      <trkpt lat="46.97594" lon="5.83445">
        <ele>350</ele>
        <time>2020-10-08T07:36:32Z</time>
      </trkpt>
      <trkpt lat="46.97602" lon="5.83443">
        <ele>350</ele>
        <time>2020-10-08T07:36:40Z</time>
      </trkpt>
      <trkpt lat="46.97608" lon="5.83445">
        <ele>351</ele>
        <time>2020-10-08T07:36:46Z</time>
      </trkpt>
      <trkpt lat="46.97615" lon="5.83442">
        <ele>351</ele>
        <time>2020-10-08T07:36:54Z</time>
      </trkpt>
      <trkpt lat="46.97623" lon="5.8344">
        <ele>353</ele>
        <time>2020-10-08T07:37:04Z</time>
      </trkpt>
      <trkpt lat="46.97631" lon="5.83437">
        <ele>353</ele>
        <time>2020-10-08T07:37:14Z</time>
      </trkpt>
      <trkpt lat="46.97636" lon="5.83434">
        <ele>354</ele>
        <time>2020-10-08T07:37:21Z</time>
      </trkpt>
      <trkpt lat="46.97644" lon="5.83424">
        <ele>355</ele>
        <time>2020-10-08T07:37:33Z</time>
      </trkpt>
      <trkpt lat="46.97664" lon="5.83426">
        <ele>359</ele>
        <time>2020-10-08T07:37:58Z</time>
      </trkpt>
      <trkpt lat="46.97669" lon="5.83425">
        <ele>359</ele>
        <time>2020-10-08T07:38:03Z</time>
      </trkpt>
      <trkpt lat="46.97675" lon="5.83428">
        <ele>358</ele>
        <time>2020-10-08T07:38:10Z</time>
      </trkpt>
      <trkpt lat="46.97682" lon="5.83426">
        <ele>358</ele>
        <time>2020-10-08T07:38:16Z</time>
      </trkpt>
      <trkpt lat="46.97695" lon="5.83425">
        <ele>359</ele>
        <time>2020-10-08T07:38:26Z</time>
      </trkpt>
      <trkpt lat="46.97701" lon="5.83419">
        <ele>359</ele>
        <time>2020-10-08T07:38:35Z</time>
      </trkpt>
      <trkpt lat="46.97733" lon="5.83416">
        <ele>362</ele>
        <time>2020-10-08T07:39:07Z</time>
      </trkpt>
      <trkpt lat="46.97741" lon="5.83416">
        <ele>363</ele>
        <time>2020-10-08T07:39:15Z</time>
      </trkpt>
      <trkpt lat="46.97747" lon="5.83416">
        <ele>364</ele>
        <time>2020-10-08T07:39:20Z</time>
      </trkpt>
      <trkpt lat="46.97756" lon="5.8342">
        <ele>366</ele>
        <time>2020-10-08T07:39:32Z</time>
      </trkpt>
      <trkpt lat="46.97762" lon="5.83418">
        <ele>367</ele>
        <time>2020-10-08T07:39:38Z</time>
      </trkpt>
      <trkpt lat="46.97773" lon="5.83412">
        <ele>368</ele>
        <time>2020-10-08T07:39:50Z</time>
      </trkpt>
      <trkpt lat="46.97779" lon="5.83412">
        <ele>370</ele>
        <time>2020-10-08T07:39:58Z</time>
      </trkpt>
      <trkpt lat="46.97792" lon="5.834">
        <ele>374</ele>
        <time>2020-10-08T07:40:23Z</time>
      </trkpt>
      <trkpt lat="46.97794" lon="5.83393">
        <ele>375</ele>
        <time>2020-10-08T07:40:35Z</time>
      </trkpt>
      <trkpt lat="46.97761" lon="5.8337">
        <ele>378</ele>
        <time>2020-10-08T07:41:11Z</time>
      </trkpt>
      <trkpt lat="46.97755" lon="5.83365">
        <ele>379</ele>
        <time>2020-10-08T07:41:19Z</time>
      </trkpt>
      <trkpt lat="46.97743" lon="5.83354">
        <ele>380</ele>
        <time>2020-10-08T07:41:31Z</time>
      </trkpt>
      <trkpt lat="46.97727" lon="5.83338">
        <ele>381</ele>
        <time>2020-10-08T07:42:13Z</time>
      </trkpt>
      <trkpt lat="46.97724" lon="5.83341">
        <ele>383</ele>
        <time>2020-10-08T07:44:45Z</time>
      </trkpt>
      <trkpt lat="46.97727" lon="5.83348">
        <ele>383</ele>
        <time>2020-10-08T07:45:09Z</time>
      </trkpt>
      <trkpt lat="46.97717" lon="5.83353">
        <ele>383</ele>
        <time>2020-10-08T07:45:27Z</time>
      </trkpt>
      <trkpt lat="46.97711" lon="5.83362">
        <ele>384</ele>
        <time>2020-10-08T07:45:39Z</time>
      </trkpt>
      <trkpt lat="46.97705" lon="5.83365">
        <ele>384</ele>
        <time>2020-10-08T07:45:45Z</time>
      </trkpt>
      <trkpt lat="46.97697" lon="5.83363">
        <ele>384</ele>
        <time>2020-10-08T07:45:53Z</time>
      </trkpt>
      <trkpt lat="46.97688" lon="5.83355">
        <ele>386</ele>
        <time>2020-10-08T07:46:08Z</time>
      </trkpt>
      <trkpt lat="46.97683" lon="5.83346">
        <ele>386</ele>
        <time>2020-10-08T07:46:14Z</time>
      </trkpt>
      <trkpt lat="46.97675" lon="5.83339">
        <ele>388</ele>
        <time>2020-10-08T07:46:26Z</time>
      </trkpt>
      <trkpt lat="46.97668" lon="5.83322">
        <ele>391</ele>
        <time>2020-10-08T07:46:45Z</time>
      </trkpt>
      <trkpt lat="46.97669" lon="5.83317">
        <ele>392</ele>
        <time>2020-10-08T07:47:27Z</time>
      </trkpt>
      <trkpt lat="46.9767" lon="5.83304">
        <ele>393</ele>
        <time>2020-10-08T07:47:50Z</time>
      </trkpt>
      <trkpt lat="46.97661" lon="5.83298">
        <ele>393</ele>
        <time>2020-10-08T07:48:04Z</time>
      </trkpt>
      <trkpt lat="46.97658" lon="5.83296">
        <ele>393</ele>
        <time>2020-10-08T07:48:16Z</time>
      </trkpt>
      <trkpt lat="46.97653" lon="5.833">
        <ele>394</ele>
        <time>2020-10-08T07:49:44Z</time>
      </trkpt>
      <trkpt lat="46.97649" lon="5.83307">
        <ele>395</ele>
        <time>2020-10-08T07:50:08Z</time>
      </trkpt>
      <trkpt lat="46.97645" lon="5.83305">
        <ele>395</ele>
        <time>2020-10-08T07:50:11Z</time>
      </trkpt>
      <trkpt lat="46.97641" lon="5.83302">
        <ele>396</ele>
        <time>2020-10-08T07:50:15Z</time>
      </trkpt>
      <trkpt lat="46.97638" lon="5.83298">
        <ele>398</ele>
        <time>2020-10-08T07:50:22Z</time>
      </trkpt>
      <trkpt lat="46.97638" lon="5.83293">
        <ele>399</ele>
        <time>2020-10-08T07:50:34Z</time>
      </trkpt>
      <trkpt lat="46.97642" lon="5.83296">
        <ele>402</ele>
        <time>2020-10-08T07:55:39Z</time>
      </trkpt>
      <trkpt lat="46.97646" lon="5.83303">
        <ele>399</ele>
        <time>2020-10-08T07:56:44Z</time>
      </trkpt>
      <trkpt lat="46.97658" lon="5.83304">
        <ele>397</ele>
        <time>2020-10-08T07:56:55Z</time>
      </trkpt>
      <trkpt lat="46.97663" lon="5.83308">
        <ele>398</ele>
        <time>2020-10-08T07:57:01Z</time>
      </trkpt>
      <trkpt lat="46.97668" lon="5.83312">
        <ele>398</ele>
        <time>2020-10-08T07:57:07Z</time>
      </trkpt>
      <trkpt lat="46.97672" lon="5.83322">
        <ele>397</ele>
        <time>2020-10-08T07:57:19Z</time>
      </trkpt>
      <trkpt lat="46.97677" lon="5.83326">
        <ele>398</ele>
        <time>2020-10-08T07:57:25Z</time>
      </trkpt>
      <trkpt lat="46.97686" lon="5.83336">
        <ele>398</ele>
        <time>2020-10-08T07:57:36Z</time>
      </trkpt>
      <trkpt lat="46.97693" lon="5.83342">
        <ele>397</ele>
        <time>2020-10-08T07:57:46Z</time>
      </trkpt>
      <trkpt lat="46.97695" lon="5.83334">
        <ele>397</ele>
        <time>2020-10-08T07:57:52Z</time>
      </trkpt>
      <trkpt lat="46.97687" lon="5.83334">
        <ele>398</ele>
        <time>2020-10-08T07:58:20Z</time>
      </trkpt>
      <trkpt lat="46.97678" lon="5.83329">
        <ele>398</ele>
        <time>2020-10-08T07:58:31Z</time>
      </trkpt>
      <trkpt lat="46.97673" lon="5.83324">
        <ele>398</ele>
        <time>2020-10-08T07:58:37Z</time>
      </trkpt>
      <trkpt lat="46.97669" lon="5.83329">
        <ele>397</ele>
        <time>2020-10-08T07:59:23Z</time>
      </trkpt>
      <trkpt lat="46.97686" lon="5.8335">
        <ele>392</ele>
        <time>2020-10-08T07:59:52Z</time>
      </trkpt>
      <trkpt lat="46.97692" lon="5.8335">
        <ele>392</ele>
        <time>2020-10-08T07:59:58Z</time>
      </trkpt>
      <trkpt lat="46.97699" lon="5.83353">
        <ele>392</ele>
        <time>2020-10-08T08:00:06Z</time>
      </trkpt>
      <trkpt lat="46.97709" lon="5.83356">
        <ele>392</ele>
        <time>2020-10-08T08:00:17Z</time>
      </trkpt>
      <trkpt lat="46.97716" lon="5.83355">
        <ele>392</ele>
        <time>2020-10-08T08:00:34Z</time>
      </trkpt>
      <trkpt lat="46.97722" lon="5.83346">
        <ele>392</ele>
        <time>2020-10-08T08:00:52Z</time>
      </trkpt>
      <trkpt lat="46.97726" lon="5.8334">
        <ele>392</ele>
        <time>2020-10-08T08:01:04Z</time>
      </trkpt>
      <trkpt lat="46.97747" lon="5.83354">
        <ele>390</ele>
        <time>2020-10-08T08:01:31Z</time>
      </trkpt>
      <trkpt lat="46.97752" lon="5.83359">
        <ele>390</ele>
        <time>2020-10-08T08:01:35Z</time>
      </trkpt>
      <trkpt lat="46.97757" lon="5.83362">
        <ele>390</ele>
        <time>2020-10-08T08:01:40Z</time>
      </trkpt>
      <trkpt lat="46.97762" lon="5.83363">
        <ele>389</ele>
        <time>2020-10-08T08:01:46Z</time>
      </trkpt>
      <trkpt lat="46.97765" lon="5.8337">
        <ele>389</ele>
        <time>2020-10-08T08:01:50Z</time>
      </trkpt>
      <trkpt lat="46.97771" lon="5.83375">
        <ele>389</ele>
        <time>2020-10-08T08:01:56Z</time>
      </trkpt>
      <trkpt lat="46.97775" lon="5.83381">
        <ele>388</ele>
        <time>2020-10-08T08:02:02Z</time>
      </trkpt>
      <trkpt lat="46.9778" lon="5.83387">
        <ele>388</ele>
        <time>2020-10-08T08:02:06Z</time>
      </trkpt>
      <trkpt lat="46.9779" lon="5.83394">
        <ele>387</ele>
        <time>2020-10-08T08:02:18Z</time>
      </trkpt>
      <trkpt lat="46.97793" lon="5.83402">
        <ele>387</ele>
        <time>2020-10-08T08:02:26Z</time>
      </trkpt>
      <trkpt lat="46.97789" lon="5.83411">
        <ele>386</ele>
        <time>2020-10-08T08:02:38Z</time>
      </trkpt>
      <trkpt lat="46.97767" lon="5.83415">
        <ele>380</ele>
        <time>2020-10-08T08:03:15Z</time>
      </trkpt>
      <trkpt lat="46.97753" lon="5.83417">
        <ele>378</ele>
        <time>2020-10-08T08:03:29Z</time>
      </trkpt>
      <trkpt lat="46.97745" lon="5.83413">
        <ele>377</ele>
        <time>2020-10-08T08:03:39Z</time>
      </trkpt>
      <trkpt lat="46.97735" lon="5.83414">
        <ele>376</ele>
        <time>2020-10-08T08:03:52Z</time>
      </trkpt>
      <trkpt lat="46.97727" lon="5.83413">
        <ele>376</ele>
        <time>2020-10-08T08:03:59Z</time>
      </trkpt>
      <trkpt lat="46.97718" lon="5.83419">
        <ele>375</ele>
        <time>2020-10-08T08:04:06Z</time>
      </trkpt>
      <trkpt lat="46.97711" lon="5.83419">
        <ele>374</ele>
        <time>2020-10-08T08:04:13Z</time>
      </trkpt>
      <trkpt lat="46.97696" lon="5.83417">
        <ele>374</ele>
        <time>2020-10-08T08:04:23Z</time>
      </trkpt>
      <trkpt lat="46.97681" lon="5.83425">
        <ele>373</ele>
        <time>2020-10-08T08:04:39Z</time>
      </trkpt>
      <trkpt lat="46.97669" lon="5.83421">
        <ele>374</ele>
        <time>2020-10-08T08:04:50Z</time>
      </trkpt>
      <trkpt lat="46.97662" lon="5.83424">
        <ele>374</ele>
        <time>2020-10-08T08:04:58Z</time>
      </trkpt>
      <trkpt lat="46.97656" lon="5.83424">
        <ele>373</ele>
        <time>2020-10-08T08:05:03Z</time>
      </trkpt>
      <trkpt lat="46.9765" lon="5.83424">
        <ele>372</ele>
        <time>2020-10-08T08:05:10Z</time>
      </trkpt>
      <trkpt lat="46.97641" lon="5.83432">
        <ele>371</ele>
        <time>2020-10-08T08:05:20Z</time>
      </trkpt>
      <trkpt lat="46.97635" lon="5.83434">
        <ele>370</ele>
        <time>2020-10-08T08:05:25Z</time>
      </trkpt>
      <trkpt lat="46.97632" lon="5.83436">
        <ele>370</ele>
        <time>2020-10-08T08:05:29Z</time>
      </trkpt>
      <trkpt lat="46.9763" lon="5.83441">
        <ele>369</ele>
        <time>2020-10-08T08:05:32Z</time>
      </trkpt>
      <trkpt lat="46.97629" lon="5.8345">
        <ele>369</ele>
        <time>2020-10-08T08:05:39Z</time>
      </trkpt>
      <trkpt lat="46.97634" lon="5.83461">
        <ele>369</ele>
        <time>2020-10-08T08:05:46Z</time>
      </trkpt>
      <trkpt lat="46.97642" lon="5.83478">
        <ele>370</ele>
        <time>2020-10-08T08:06:02Z</time>
      </trkpt>
      <trkpt lat="46.97646" lon="5.8348">
        <ele>370</ele>
        <time>2020-10-08T08:06:05Z</time>
      </trkpt>
      <trkpt lat="46.97654" lon="5.83488">
        <ele>369</ele>
        <time>2020-10-08T08:06:16Z</time>
      </trkpt>
      <trkpt lat="46.97658" lon="5.83494">
        <ele>369</ele>
        <time>2020-10-08T08:06:22Z</time>
      </trkpt>
      <trkpt lat="46.97664" lon="5.83505">
        <ele>368</ele>
        <time>2020-10-08T08:06:33Z</time>
      </trkpt>
      <trkpt lat="46.97675" lon="5.83513">
        <ele>366</ele>
        <time>2020-10-08T08:06:51Z</time>
      </trkpt>
      <trkpt lat="46.97678" lon="5.83521">
        <ele>365</ele>
        <time>2020-10-08T08:06:57Z</time>
      </trkpt>
      <trkpt lat="46.97692" lon="5.83531">
        <ele>363</ele>
        <time>2020-10-08T08:07:17Z</time>
      </trkpt>
      <trkpt lat="46.97705" lon="5.8356">
        <ele>362</ele>
        <time>2020-10-08T08:07:41Z</time>
      </trkpt>
      <trkpt lat="46.97711" lon="5.83563">
        <ele>361</ele>
        <time>2020-10-08T08:07:47Z</time>
      </trkpt>
      <trkpt lat="46.97715" lon="5.83572">
        <ele>359</ele>
        <time>2020-10-08T08:07:55Z</time>
      </trkpt>
      <trkpt lat="46.9773" lon="5.83577">
        <ele>357</ele>
        <time>2020-10-08T08:08:16Z</time>
      </trkpt>
      <trkpt lat="46.97754" lon="5.83591">
        <ele>352</ele>
        <time>2020-10-08T08:08:48Z</time>
      </trkpt>
      <trkpt lat="46.9776" lon="5.83597">
        <ele>351</ele>
        <time>2020-10-08T08:08:57Z</time>
      </trkpt>
      <trkpt lat="46.97776" lon="5.83602">
        <ele>348</ele>
        <time>2020-10-08T08:09:14Z</time>
      </trkpt>
      <trkpt lat="46.97792" lon="5.83617">
        <ele>345</ele>
        <time>2020-10-08T08:09:36Z</time>
      </trkpt>
      <trkpt lat="46.97801" lon="5.83632">
        <ele>345</ele>
        <time>2020-10-08T08:09:46Z</time>
      </trkpt>
      <trkpt lat="46.97806" lon="5.83635">
        <ele>344</ele>
        <time>2020-10-08T08:09:52Z</time>
      </trkpt>
      <trkpt lat="46.9782" lon="5.83655">
        <ele>341</ele>
        <time>2020-10-08T08:10:12Z</time>
      </trkpt>
      <trkpt lat="46.97828" lon="5.83663">
        <ele>340</ele>
        <time>2020-10-08T08:10:22Z</time>
      </trkpt>
      <trkpt lat="46.97831" lon="5.83671">
        <ele>339</ele>
        <time>2020-10-08T08:10:31Z</time>
      </trkpt>
      <trkpt lat="46.97847" lon="5.83679">
        <ele>337</ele>
        <time>2020-10-08T08:10:48Z</time>
      </trkpt>
      <trkpt lat="46.9786" lon="5.8368">
        <ele>335</ele>
        <time>2020-10-08T08:11:04Z</time>
      </trkpt>
      <trkpt lat="46.97891" lon="5.83705">
        <ele>331</ele>
        <time>2020-10-08T08:11:37Z</time>
      </trkpt>
      <trkpt lat="46.97895" lon="5.83713">
        <ele>330</ele>
        <time>2020-10-08T08:11:45Z</time>
      </trkpt>
      <trkpt lat="46.97899" lon="5.83719">
        <ele>329</ele>
        <time>2020-10-08T08:11:53Z</time>
      </trkpt>
      <trkpt lat="46.97905" lon="5.83723">
        <ele>329</ele>
        <time>2020-10-08T08:11:56Z</time>
      </trkpt>
      <trkpt lat="46.97914" lon="5.83734">
        <ele>328</ele>
        <time>2020-10-08T08:12:06Z</time>
      </trkpt>
      <trkpt lat="46.9793" lon="5.83741">
        <ele>326</ele>
        <time>2020-10-08T08:12:23Z</time>
      </trkpt>
      <trkpt lat="46.9794" lon="5.83753">
        <ele>325</ele>
        <time>2020-10-08T08:12:37Z</time>
      </trkpt>
      <trkpt lat="46.97943" lon="5.83761">
        <ele>325</ele>
        <time>2020-10-08T08:12:43Z</time>
      </trkpt>
      <trkpt lat="46.97948" lon="5.83764">
        <ele>324</ele>
        <time>2020-10-08T08:12:48Z</time>
      </trkpt>
      <trkpt lat="46.97958" lon="5.83776">
        <ele>323</ele>
        <time>2020-10-08T08:13:04Z</time>
      </trkpt>
      <trkpt lat="46.97961" lon="5.83784">
        <ele>323</ele>
        <time>2020-10-08T08:13:10Z</time>
      </trkpt>
      <trkpt lat="46.97968" lon="5.83795">
        <ele>322</ele>
        <time>2020-10-08T08:13:22Z</time>
      </trkpt>
      <trkpt lat="46.97974" lon="5.83796">
        <ele>321</ele>
        <time>2020-10-08T08:13:27Z</time>
      </trkpt>
      <trkpt lat="46.97977" lon="5.83803">
        <ele>321</ele>
        <time>2020-10-08T08:13:33Z</time>
      </trkpt>
      <trkpt lat="46.97984" lon="5.83807">
        <ele>320</ele>
        <time>2020-10-08T08:13:41Z</time>
      </trkpt>
      <trkpt lat="46.97989" lon="5.8381">
        <ele>320</ele>
        <time>2020-10-08T08:13:47Z</time>
      </trkpt>
      <trkpt lat="46.97995" lon="5.83817">
        <ele>319</ele>
        <time>2020-10-08T08:13:56Z</time>
      </trkpt>
      <trkpt lat="46.98024" lon="5.83839">
        <ele>318</ele>
        <time>2020-10-08T08:14:23Z</time>
      </trkpt>
      <trkpt lat="46.98043" lon="5.83862">
        <ele>317</ele>
        <time>2020-10-08T08:14:45Z</time>
      </trkpt>
      <trkpt lat="46.98074" lon="5.83885">
        <ele>314</ele>
        <time>2020-10-08T08:15:19Z</time>
      </trkpt>
      <trkpt lat="46.98077" lon="5.83891">
        <ele>314</ele>
        <time>2020-10-08T08:15:24Z</time>
      </trkpt>
      <trkpt lat="46.98099" lon="5.83911">
        <ele>313</ele>
        <time>2020-10-08T08:15:47Z</time>
      </trkpt>
      <trkpt lat="46.98109" lon="5.83923">
        <ele>313</ele>
        <time>2020-10-08T08:16:02Z</time>
      </trkpt>
      <trkpt lat="46.9812" lon="5.83932">
        <ele>312</ele>
        <time>2020-10-08T08:16:12Z</time>
      </trkpt>
      <trkpt lat="46.98127" lon="5.83939">
        <ele>312</ele>
        <time>2020-10-08T08:16:27Z</time>
      </trkpt>
      <trkpt lat="46.98137" lon="5.83943">
        <ele>312</ele>
        <time>2020-10-08T08:16:39Z</time>
      </trkpt>
      <trkpt lat="46.98172" lon="5.83971">
        <ele>311</ele>
        <time>2020-10-08T08:17:13Z</time>
      </trkpt>
      <trkpt lat="46.98177" lon="5.83981">
        <ele>311</ele>
        <time>2020-10-08T08:17:21Z</time>
      </trkpt>
      <trkpt lat="46.98184" lon="5.83986">
        <ele>311</ele>
        <time>2020-10-08T08:17:27Z</time>
      </trkpt>
      <trkpt lat="46.98215" lon="5.83994">
        <ele>311</ele>
        <time>2020-10-08T08:17:56Z</time>
      </trkpt>
      <trkpt lat="46.98222" lon="5.83994">
        <ele>311</ele>
        <time>2020-10-08T08:18:02Z</time>
      </trkpt>
      <trkpt lat="46.98239" lon="5.84004">
        <ele>310</ele>
        <time>2020-10-08T08:18:19Z</time>
      </trkpt>
      <trkpt lat="46.98246" lon="5.84005">
        <ele>310</ele>
        <time>2020-10-08T08:18:26Z</time>
      </trkpt>
      <trkpt lat="46.98268" lon="5.84019">
        <ele>310</ele>
        <time>2020-10-08T08:18:46Z</time>
      </trkpt>
      <trkpt lat="46.98276" lon="5.84022">
        <ele>310</ele>
        <time>2020-10-08T08:18:52Z</time>
      </trkpt>
      <trkpt lat="46.98285" lon="5.84033">
        <ele>310</ele>
        <time>2020-10-08T08:19:07Z</time>
      </trkpt>
      <trkpt lat="46.98301" lon="5.84033">
        <ele>311</ele>
        <time>2020-10-08T08:19:21Z</time>
      </trkpt>
      <trkpt lat="46.98309" lon="5.84035">
        <ele>312</ele>
        <time>2020-10-08T08:19:36Z</time>
      </trkpt>
      <trkpt lat="46.98316" lon="5.84051">
        <ele>314</ele>
        <time>2020-10-08T08:19:54Z</time>
      </trkpt>
      <trkpt lat="46.98324" lon="5.84063">
        <ele>316</ele>
        <time>2020-10-08T08:20:09Z</time>
      </trkpt>
      <trkpt lat="46.98337" lon="5.84072">
        <ele>320</ele>
        <time>2020-10-08T08:20:30Z</time>
      </trkpt>
      <trkpt lat="46.9834" lon="5.84079">
        <ele>320</ele>
        <time>2020-10-08T08:20:36Z</time>
      </trkpt>
      <trkpt lat="46.98347" lon="5.84085">
        <ele>322</ele>
        <time>2020-10-08T08:20:46Z</time>
      </trkpt>
      <trkpt lat="46.98354" lon="5.84101">
        <ele>325</ele>
        <time>2020-10-08T08:21:06Z</time>
      </trkpt>
      <trkpt lat="46.98361" lon="5.84104">
        <ele>326</ele>
        <time>2020-10-08T08:21:27Z</time>
      </trkpt>
      <trkpt lat="46.98373" lon="5.84105">
        <ele>326</ele>
        <time>2020-10-08T08:21:39Z</time>
      </trkpt>
      <trkpt lat="46.98403" lon="5.84111">
        <ele>326</ele>
        <time>2020-10-08T08:22:11Z</time>
      </trkpt>
      <trkpt lat="46.98418" lon="5.84114">
        <ele>326</ele>
        <time>2020-10-08T08:22:28Z</time>
      </trkpt>
      <trkpt lat="46.98427" lon="5.84118">
        <ele>326</ele>
        <time>2020-10-08T08:22:41Z</time>
      </trkpt>
      <trkpt lat="46.98437" lon="5.84121">
        <ele>326</ele>
        <time>2020-10-08T08:22:52Z</time>
      </trkpt>
      <trkpt lat="46.98444" lon="5.84124">
        <ele>326</ele>
        <time>2020-10-08T08:22:56Z</time>
      </trkpt>
      <trkpt lat="46.98455" lon="5.84125">
        <ele>326</ele>
        <time>2020-10-08T08:23:05Z</time>
      </trkpt>
      <trkpt lat="46.98463" lon="5.84127">
        <ele>326</ele>
        <time>2020-10-08T08:23:14Z</time>
      </trkpt>
      <trkpt lat="46.98468" lon="5.84129">
        <ele>326</ele>
        <time>2020-10-08T08:23:20Z</time>
      </trkpt>
      <trkpt lat="46.98487" lon="5.84129">
        <ele>326</ele>
        <time>2020-10-08T08:23:41Z</time>
      </trkpt>
      <trkpt lat="46.98493" lon="5.8413">
        <ele>326</ele>
        <time>2020-10-08T08:23:49Z</time>
      </trkpt>
      <trkpt lat="46.9851" lon="5.8414">
        <ele>327</ele>
        <time>2020-10-08T08:24:14Z</time>
      </trkpt>
      <trkpt lat="46.98516" lon="5.8414">
        <ele>327</ele>
        <time>2020-10-08T08:24:19Z</time>
      </trkpt>
      <trkpt lat="46.98523" lon="5.84139">
        <ele>327</ele>
        <time>2020-10-08T08:24:25Z</time>
      </trkpt>
      <trkpt lat="46.98531" lon="5.8414">
        <ele>327</ele>
        <time>2020-10-08T08:24:32Z</time>
      </trkpt>
      <trkpt lat="46.98556" lon="5.84133">
        <ele>328</ele>
        <time>2020-10-08T08:24:53Z</time>
      </trkpt>
      <trkpt lat="46.98563" lon="5.84131">
        <ele>328</ele>
        <time>2020-10-08T08:25:02Z</time>
      </trkpt>
      <trkpt lat="46.98574" lon="5.8413">
        <ele>327</ele>
        <time>2020-10-08T08:25:22Z</time>
      </trkpt>
      <trkpt lat="46.98583" lon="5.84128">
        <ele>326</ele>
        <time>2020-10-08T08:25:32Z</time>
      </trkpt>
      <trkpt lat="46.98593" lon="5.84128">
        <ele>326</ele>
        <time>2020-10-08T08:25:38Z</time>
      </trkpt>
      <trkpt lat="46.98597" lon="5.8413">
        <ele>326</ele>
        <time>2020-10-08T08:25:43Z</time>
      </trkpt>
      <trkpt lat="46.98603" lon="5.84129">
        <ele>326</ele>
        <time>2020-10-08T08:25:56Z</time>
      </trkpt>
      <trkpt lat="46.98612" lon="5.84122">
        <ele>326</ele>
        <time>2020-10-08T08:26:09Z</time>
      </trkpt>
      <trkpt lat="46.98617" lon="5.8412">
        <ele>325</ele>
        <time>2020-10-08T08:26:15Z</time>
      </trkpt>
      <trkpt lat="46.98626" lon="5.84122">
        <ele>326</ele>
        <time>2020-10-08T08:26:29Z</time>
      </trkpt>
      <trkpt lat="46.98638" lon="5.84138">
        <ele>326</ele>
        <time>2020-10-08T08:27:07Z</time>
      </trkpt>
      <trkpt lat="46.98642" lon="5.84145">
        <ele>326</ele>
        <time>2020-10-08T08:27:13Z</time>
      </trkpt>
      <trkpt lat="46.98645" lon="5.84162">
        <ele>325</ele>
        <time>2020-10-08T08:27:27Z</time>
      </trkpt>
      <trkpt lat="46.98648" lon="5.8418">
        <ele>324</ele>
        <time>2020-10-08T08:27:41Z</time>
      </trkpt>
      <trkpt lat="46.98648" lon="5.84201">
        <ele>325</ele>
        <time>2020-10-08T08:27:54Z</time>
      </trkpt>
      <trkpt lat="46.98651" lon="5.84212">
        <ele>325</ele>
        <time>2020-10-08T08:28:06Z</time>
      </trkpt>
      <trkpt lat="46.98647" lon="5.84228">
        <ele>326</ele>
        <time>2020-10-08T08:28:17Z</time>
      </trkpt>
      <trkpt lat="46.98651" lon="5.84236">
        <ele>327</ele>
        <time>2020-10-08T08:28:24Z</time>
      </trkpt>
      <trkpt lat="46.98654" lon="5.84255">
        <ele>328</ele>
        <time>2020-10-08T08:28:40Z</time>
      </trkpt>
      <trkpt lat="46.98654" lon="5.84292">
        <ele>335</ele>
        <time>2020-10-08T08:29:20Z</time>
      </trkpt>
      <trkpt lat="46.98653" lon="5.84302">
        <ele>339</ele>
        <time>2020-10-08T08:29:40Z</time>
      </trkpt>
      <trkpt lat="46.9865" lon="5.84312">
        <ele>340</ele>
        <time>2020-10-08T08:29:47Z</time>
      </trkpt>
      <trkpt lat="46.98648" lon="5.84322">
        <ele>343</ele>
        <time>2020-10-08T08:30:02Z</time>
      </trkpt>
      <trkpt lat="46.98652" lon="5.84343">
        <ele>346</ele>
        <time>2020-10-08T08:30:20Z</time>
      </trkpt>
      <trkpt lat="46.98651" lon="5.84352">
        <ele>348</ele>
        <time>2020-10-08T08:30:29Z</time>
      </trkpt>
      <trkpt lat="46.98651" lon="5.84361">
        <ele>348</ele>
        <time>2020-10-08T08:30:35Z</time>
      </trkpt>
      <trkpt lat="46.98648" lon="5.84368">
        <ele>348</ele>
        <time>2020-10-08T08:30:48Z</time>
      </trkpt>
      <trkpt lat="46.98648" lon="5.84373">
        <ele>349</ele>
        <time>2020-10-08T08:32:21Z</time>
      </trkpt>
      <trkpt lat="46.9865" lon="5.84378">
        <ele>352</ele>
        <time>2020-10-08T08:35:25Z</time>
      </trkpt>
      <trkpt lat="46.98648" lon="5.84389">
        <ele>352</ele>
        <time>2020-10-08T08:38:13Z</time>
      </trkpt>
      <trkpt lat="46.98646" lon="5.844">
        <ele>351</ele>
        <time>2020-10-08T08:38:25Z</time>
      </trkpt>
      <trkpt lat="46.98644" lon="5.84412">
        <ele>350</ele>
        <time>2020-10-08T08:38:37Z</time>
      </trkpt>
      <trkpt lat="46.98645" lon="5.8442">
        <ele>349</ele>
        <time>2020-10-08T08:38:47Z</time>
      </trkpt>
      <trkpt lat="46.98643" lon="5.84429">
        <ele>347</ele>
        <time>2020-10-08T08:38:57Z</time>
      </trkpt>
      <trkpt lat="46.9864" lon="5.8444">
        <ele>345</ele>
        <time>2020-10-08T08:39:07Z</time>
      </trkpt>
      <trkpt lat="46.98645" lon="5.84449">
        <ele>344</ele>
        <time>2020-10-08T08:39:20Z</time>
      </trkpt>
      <trkpt lat="46.98652" lon="5.84452">
        <ele>346</ele>
        <time>2020-10-08T08:39:32Z</time>
      </trkpt>
      <trkpt lat="46.98672" lon="5.84447">
        <ele>348</ele>
        <time>2020-10-08T08:39:57Z</time>
      </trkpt>
      <trkpt lat="46.98683" lon="5.8445">
        <ele>349</ele>
        <time>2020-10-08T08:40:12Z</time>
      </trkpt>
      <trkpt lat="46.9869" lon="5.84451">
        <ele>348</ele>
        <time>2020-10-08T08:40:17Z</time>
      </trkpt>
      <trkpt lat="46.9871" lon="5.84465">
        <ele>348</ele>
        <time>2020-10-08T08:40:38Z</time>
      </trkpt>
      <trkpt lat="46.98734" lon="5.84472">
        <ele>348</ele>
        <time>2020-10-08T08:40:56Z</time>
      </trkpt>
      <trkpt lat="46.98749" lon="5.84482">
        <ele>348</ele>
        <time>2020-10-08T08:41:15Z</time>
      </trkpt>
      <trkpt lat="46.98775" lon="5.84482">
        <ele>349</ele>
        <time>2020-10-08T08:41:40Z</time>
      </trkpt>
      <trkpt lat="46.98783" lon="5.84484">
        <ele>350</ele>
        <time>2020-10-08T08:41:46Z</time>
      </trkpt>
      <trkpt lat="46.98793" lon="5.84483">
        <ele>351</ele>
        <time>2020-10-08T08:41:56Z</time>
      </trkpt>
      <trkpt lat="46.98802" lon="5.8448">
        <ele>352</ele>
        <time>2020-10-08T08:42:09Z</time>
      </trkpt>
      <trkpt lat="46.98816" lon="5.84474">
        <ele>353</ele>
        <time>2020-10-08T08:42:24Z</time>
      </trkpt>
      <trkpt lat="46.98839" lon="5.84482">
        <ele>352</ele>
        <time>2020-10-08T08:42:49Z</time>
      </trkpt>
      <trkpt lat="46.98847" lon="5.84479">
        <ele>351</ele>
        <time>2020-10-08T08:43:00Z</time>
      </trkpt>
      <trkpt lat="46.98855" lon="5.84476">
        <ele>350</ele>
        <time>2020-10-08T08:43:13Z</time>
      </trkpt>
      <trkpt lat="46.9888" lon="5.84495">
        <ele>344</ele>
        <time>2020-10-08T08:44:25Z</time>
      </trkpt>
      <trkpt lat="46.98886" lon="5.84502">
        <ele>344</ele>
        <time>2020-10-08T08:44:37Z</time>
      </trkpt>
      <trkpt lat="46.98898" lon="5.84507">
        <ele>342</ele>
        <time>2020-10-08T08:44:56Z</time>
      </trkpt>
      <trkpt lat="46.98905" lon="5.84503">
        <ele>342</ele>
        <time>2020-10-08T08:45:34Z</time>
      </trkpt>
      <trkpt lat="46.98912" lon="5.84508">
        <ele>342</ele>
        <time>2020-10-08T08:45:47Z</time>
      </trkpt>
      <trkpt lat="46.98918" lon="5.84505">
        <ele>342</ele>
        <time>2020-10-08T08:46:22Z</time>
      </trkpt>
      <trkpt lat="46.98915" lon="5.84504">
        <ele>342</ele>
        <time>2020-10-08T08:47:30Z</time>
      </trkpt>
      <trkpt lat="46.98918" lon="5.84517">
        <ele>340</ele>
        <time>2020-10-08T08:48:06Z</time>
      </trkpt>
      <trkpt lat="46.98927" lon="5.84512">
        <ele>337</ele>
        <time>2020-10-08T08:48:24Z</time>
      </trkpt>
      <trkpt lat="46.98935" lon="5.84508">
        <ele>335</ele>
        <time>2020-10-08T08:48:35Z</time>
      </trkpt>
      <trkpt lat="46.98944" lon="5.84521">
        <ele>334</ele>
        <time>2020-10-08T08:48:49Z</time>
      </trkpt>
      <trkpt lat="46.98951" lon="5.84516">
        <ele>334</ele>
        <time>2020-10-08T08:50:51Z</time>
      </trkpt>
      <trkpt lat="46.98958" lon="5.84527">
        <ele>334</ele>
        <time>2020-10-08T08:51:16Z</time>
      </trkpt>
      <trkpt lat="46.98987" lon="5.84542">
        <ele>332</ele>
        <time>2020-10-08T08:51:54Z</time>
      </trkpt>
      <trkpt lat="46.99001" lon="5.84541">
        <ele>329</ele>
        <time>2020-10-08T08:52:20Z</time>
      </trkpt>
      <trkpt lat="46.99014" lon="5.84554">
        <ele>327</ele>
        <time>2020-10-08T08:52:40Z</time>
      </trkpt>
      <trkpt lat="46.99022" lon="5.84558">
        <ele>326</ele>
        <time>2020-10-08T08:52:51Z</time>
      </trkpt>
      <trkpt lat="46.99033" lon="5.84565">
        <ele>326</ele>
        <time>2020-10-08T08:53:10Z</time>
      </trkpt>
      <trkpt lat="46.99041" lon="5.84568">
        <ele>325</ele>
        <time>2020-10-08T08:53:18Z</time>
      </trkpt>
      <trkpt lat="46.99048" lon="5.84577">
        <ele>323</ele>
        <time>2020-10-08T08:53:32Z</time>
      </trkpt>
      <trkpt lat="46.99062" lon="5.84586">
        <ele>321</ele>
        <time>2020-10-08T08:53:52Z</time>
      </trkpt>
      <trkpt lat="46.99069" lon="5.84589">
        <ele>322</ele>
        <time>2020-10-08T08:54:00Z</time>
      </trkpt>
      <trkpt lat="46.99075" lon="5.84584">
        <ele>323</ele>
        <time>2020-10-08T08:54:09Z</time>
      </trkpt>
      <trkpt lat="46.99081" lon="5.84599">
        <ele>323</ele>
        <time>2020-10-08T08:55:35Z</time>
      </trkpt>
      <trkpt lat="46.9909" lon="5.84599">
        <ele>321</ele>
        <time>2020-10-08T08:55:51Z</time>
      </trkpt>
      <trkpt lat="46.99095" lon="5.84592">
        <ele>321</ele>
        <time>2020-10-08T08:56:03Z</time>
      </trkpt>
      <trkpt lat="46.9911" lon="5.84569">
        <ele>317</ele>
        <time>2020-10-08T08:56:32Z</time>
      </trkpt>
      <trkpt lat="46.99119" lon="5.84571">
        <ele>316</ele>
        <time>2020-10-08T08:56:50Z</time>
      </trkpt>
      <trkpt lat="46.99123" lon="5.84561">
        <ele>316</ele>
        <time>2020-10-08T08:56:56Z</time>
      </trkpt>
      <trkpt lat="46.99131" lon="5.84564">
        <ele>315</ele>
        <time>2020-10-08T08:57:01Z</time>
      </trkpt>
      <trkpt lat="46.99146" lon="5.84555">
        <ele>314</ele>
        <time>2020-10-08T08:57:12Z</time>
      </trkpt>
      <trkpt lat="46.99171" lon="5.84557">
        <ele>314</ele>
        <time>2020-10-08T08:57:27Z</time>
      </trkpt>
      <trkpt lat="46.99203" lon="5.84532">
        <ele>313</ele>
        <time>2020-10-08T08:58:02Z</time>
      </trkpt>
      <trkpt lat="46.99211" lon="5.84525">
        <ele>312</ele>
        <time>2020-10-08T08:58:16Z</time>
      </trkpt>
      <trkpt lat="46.99221" lon="5.84528">
        <ele>311</ele>
        <time>2020-10-08T08:58:22Z</time>
      </trkpt>
      <trkpt lat="46.99227" lon="5.84525">
        <ele>311</ele>
        <time>2020-10-08T08:58:26Z</time>
      </trkpt>
      <trkpt lat="46.99257" lon="5.84523">
        <ele>307</ele>
        <time>2020-10-08T08:58:56Z</time>
      </trkpt>
      <trkpt lat="46.99266" lon="5.84527">
        <ele>306</ele>
        <time>2020-10-08T08:59:03Z</time>
      </trkpt>
      <trkpt lat="46.99272" lon="5.84533">
        <ele>306</ele>
        <time>2020-10-08T08:59:09Z</time>
      </trkpt>
      <trkpt lat="46.99303" lon="5.84531">
        <ele>302</ele>
        <time>2020-10-08T08:59:41Z</time>
      </trkpt>
      <trkpt lat="46.99313" lon="5.84523">
        <ele>300</ele>
        <time>2020-10-08T08:59:55Z</time>
      </trkpt>
      <trkpt lat="46.99323" lon="5.8452">
        <ele>299</ele>
        <time>2020-10-08T09:00:06Z</time>
      </trkpt>
      <trkpt lat="46.99328" lon="5.84515">
        <ele>298</ele>
        <time>2020-10-08T09:00:13Z</time>
      </trkpt>
      <trkpt lat="46.9937" lon="5.84515">
        <ele>295</ele>
        <time>2020-10-08T09:00:52Z</time>
      </trkpt>
      <trkpt lat="46.99399" lon="5.84507">
        <ele>292</ele>
        <time>2020-10-08T09:01:22Z</time>
      </trkpt>
      <trkpt lat="46.99407" lon="5.84506">
        <ele>291</ele>
        <time>2020-10-08T09:01:29Z</time>
      </trkpt>
      <trkpt lat="46.99414" lon="5.845">
        <ele>291</ele>
        <time>2020-10-08T09:01:35Z</time>
      </trkpt>
      <trkpt lat="46.99421" lon="5.84501">
        <ele>290</ele>
        <time>2020-10-08T09:01:49Z</time>
      </trkpt>
      <trkpt lat="46.99429" lon="5.84496">
        <ele>289</ele>
        <time>2020-10-08T09:01:57Z</time>
      </trkpt>
      <trkpt lat="46.99454" lon="5.84495">
        <ele>286</ele>
        <time>2020-10-08T09:02:29Z</time>
      </trkpt>
      <trkpt lat="46.99462" lon="5.84498">
        <ele>285</ele>
        <time>2020-10-08T09:02:37Z</time>
      </trkpt>
      <trkpt lat="46.99501" lon="5.84494">
        <ele>281</ele>
        <time>2020-10-08T09:03:15Z</time>
      </trkpt>
      <trkpt lat="46.99509" lon="5.84495">
        <ele>280</ele>
        <time>2020-10-08T09:03:21Z</time>
      </trkpt>
      <trkpt lat="46.99523" lon="5.84502">
        <ele>279</ele>
        <time>2020-10-08T09:03:31Z</time>
      </trkpt>
      <trkpt lat="46.99547" lon="5.84498">
        <ele>277</ele>
        <time>2020-10-08T09:03:52Z</time>
      </trkpt>
      <trkpt lat="46.99576" lon="5.84484">
        <ele>276</ele>
        <time>2020-10-08T09:04:22Z</time>
      </trkpt>
      <trkpt lat="46.99612" lon="5.84474">
        <ele>275</ele>
        <time>2020-10-08T09:04:55Z</time>
      </trkpt>
      <trkpt lat="46.9962" lon="5.84471">
        <ele>274</ele>
        <time>2020-10-08T09:05:01Z</time>
      </trkpt>
      <trkpt lat="46.99642" lon="5.84472">
        <ele>274</ele>
        <time>2020-10-08T09:05:22Z</time>
      </trkpt>
      <trkpt lat="46.99675" lon="5.84465">
        <ele>273</ele>
        <time>2020-10-08T09:05:55Z</time>
      </trkpt>
      <trkpt lat="46.99683" lon="5.84459">
        <ele>272</ele>
        <time>2020-10-08T09:06:06Z</time>
      </trkpt>
      <trkpt lat="46.99703" lon="5.84449">
        <ele>271</ele>
        <time>2020-10-08T09:06:26Z</time>
      </trkpt>
      <trkpt lat="46.99711" lon="5.8445">
        <ele>271</ele>
        <time>2020-10-08T09:06:32Z</time>
      </trkpt>
      <trkpt lat="46.99718" lon="5.84451">
        <ele>270</ele>
        <time>2020-10-08T09:06:40Z</time>
      </trkpt>
      <trkpt lat="46.99725" lon="5.84457">
        <ele>270</ele>
        <time>2020-10-08T09:06:44Z</time>
      </trkpt>
      <trkpt lat="46.99732" lon="5.84455">
        <ele>270</ele>
        <time>2020-10-08T09:06:52Z</time>
      </trkpt>
      <trkpt lat="46.99756" lon="5.8444">
        <ele>268</ele>
        <time>2020-10-08T09:07:18Z</time>
      </trkpt>
      <trkpt lat="46.99771" lon="5.84436">
        <ele>267</ele>
        <time>2020-10-08T09:07:31Z</time>
      </trkpt>
      <trkpt lat="46.99778" lon="5.84437">
        <ele>267</ele>
        <time>2020-10-08T09:07:37Z</time>
      </trkpt>
      <trkpt lat="46.998" lon="5.84433">
        <ele>265</ele>
        <time>2020-10-08T09:07:57Z</time>
      </trkpt>
      <trkpt lat="46.99816" lon="5.84439">
        <ele>263</ele>
        <time>2020-10-08T09:08:12Z</time>
      </trkpt>
      <trkpt lat="46.99822" lon="5.84439">
        <ele>262</ele>
        <time>2020-10-08T09:08:20Z</time>
      </trkpt>
      <trkpt lat="46.9983" lon="5.84437">
        <ele>262</ele>
        <time>2020-10-08T09:08:30Z</time>
      </trkpt>
      <trkpt lat="46.99838" lon="5.84445">
        <ele>262</ele>
        <time>2020-10-08T09:09:06Z</time>
      </trkpt>
      <trkpt lat="46.99843" lon="5.84449">
        <ele>262</ele>
        <time>2020-10-08T09:09:10Z</time>
      </trkpt>
      <trkpt lat="46.99861" lon="5.84451">
        <ele>262</ele>
        <time>2020-10-08T09:09:29Z</time>
      </trkpt>
      <trkpt lat="46.99867" lon="5.84448">
        <ele>262</ele>
        <time>2020-10-08T09:09:34Z</time>
      </trkpt>
      <trkpt lat="46.99881" lon="5.84448">
        <ele>262</ele>
        <time>2020-10-08T09:09:44Z</time>
      </trkpt>
      <trkpt lat="46.99886" lon="5.84446">
        <ele>262</ele>
        <time>2020-10-08T09:09:48Z</time>
      </trkpt>
      <trkpt lat="46.99892" lon="5.84446">
        <ele>262</ele>
        <time>2020-10-08T09:09:53Z</time>
      </trkpt>
      <trkpt lat="46.99904" lon="5.84443">
        <ele>262</ele>
        <time>2020-10-08T09:10:04Z</time>
      </trkpt>
      <trkpt lat="46.99909" lon="5.84444">
        <ele>262</ele>
        <time>2020-10-08T09:10:08Z</time>
      </trkpt>
      <trkpt lat="46.99915" lon="5.84442">
        <ele>262</ele>
        <time>2020-10-08T09:10:13Z</time>
      </trkpt>
      <trkpt lat="46.99953" lon="5.84442">
        <ele>261</ele>
        <time>2020-10-08T09:10:46Z</time>
      </trkpt>
      <trkpt lat="46.99991" lon="5.84435">
        <ele>258</ele>
        <time>2020-10-08T09:11:27Z</time>
      </trkpt>
      <trkpt lat="46.99995" lon="5.84429">
        <ele>258</ele>
        <time>2020-10-08T09:11:32Z</time>
      </trkpt>
      <trkpt lat="47.00001" lon="5.84432">
        <ele>258</ele>
        <time>2020-10-08T09:11:38Z</time>
      </trkpt>
      <trkpt lat="47.00002" lon="5.84443">
        <ele>258</ele>
        <time>2020-10-08T09:11:46Z</time>
      </trkpt>
      <trkpt lat="47.00008" lon="5.84462">
        <ele>259</ele>
        <time>2020-10-08T09:12:01Z</time>
      </trkpt>
      <trkpt lat="47.00009" lon="5.84469">
        <ele>259</ele>
        <time>2020-10-08T09:12:06Z</time>
      </trkpt>
      <trkpt lat="47.00025" lon="5.84499">
        <ele>261</ele>
        <time>2020-10-08T09:12:31Z</time>
      </trkpt>
      <trkpt lat="47.00025" lon="5.8451">
        <ele>262</ele>
        <time>2020-10-08T09:12:38Z</time>
      </trkpt>
      <trkpt lat="47.00028" lon="5.84518">
        <ele>262</ele>
        <time>2020-10-08T09:12:44Z</time>
      </trkpt>
      <trkpt lat="47.00029" lon="5.84528">
        <ele>262</ele>
        <time>2020-10-08T09:12:49Z</time>
      </trkpt>
      <trkpt lat="47.00031" lon="5.84535">
        <ele>263</ele>
        <time>2020-10-08T09:12:55Z</time>
      </trkpt>
      <trkpt lat="47.00035" lon="5.84542">
        <ele>263</ele>
        <time>2020-10-08T09:13:04Z</time>
      </trkpt>
      <trkpt lat="47.00047" lon="5.84575">
        <ele>266</ele>
        <time>2020-10-08T09:13:31Z</time>
      </trkpt>
      <trkpt lat="47.00065" lon="5.84608">
        <ele>268</ele>
        <time>2020-10-08T09:14:00Z</time>
      </trkpt>
      <trkpt lat="47.00074" lon="5.84631">
        <ele>270</ele>
        <time>2020-10-08T09:14:19Z</time>
      </trkpt>
      <trkpt lat="47.00102" lon="5.84671">
        <ele>272</ele>
        <time>2020-10-08T09:14:51Z</time>
      </trkpt>
      <trkpt lat="47.00108" lon="5.84681">
        <ele>273</ele>
        <time>2020-10-08T09:15:01Z</time>
      </trkpt>
      <trkpt lat="47.00108" lon="5.84711">
        <ele>273</ele>
        <time>2020-10-08T09:15:18Z</time>
      </trkpt>
      <trkpt lat="47.0011" lon="5.84719">
        <ele>273</ele>
        <time>2020-10-08T09:15:23Z</time>
      </trkpt>
      <trkpt lat="47.0011" lon="5.84746">
        <ele>272</ele>
        <time>2020-10-08T09:15:38Z</time>
      </trkpt>
      <trkpt lat="47.00113" lon="5.84754">
        <ele>272</ele>
        <time>2020-10-08T09:15:42Z</time>
      </trkpt>
      <trkpt lat="47.00113" lon="5.84762">
        <ele>272</ele>
        <time>2020-10-08T09:15:46Z</time>
      </trkpt>
      <trkpt lat="47.00113" lon="5.8477">
        <ele>271</ele>
        <time>2020-10-08T09:15:51Z</time>
      </trkpt>
      <trkpt lat="47.00115" lon="5.84788">
        <ele>271</ele>
        <time>2020-10-08T09:16:03Z</time>
      </trkpt>
      <trkpt lat="47.00124" lon="5.84809">
        <ele>270</ele>
        <time>2020-10-08T09:16:19Z</time>
      </trkpt>
      <trkpt lat="47.00143" lon="5.84835">
        <ele>269</ele>
        <time>2020-10-08T09:16:49Z</time>
      </trkpt>
      <trkpt lat="47.00145" lon="5.84847">
        <ele>269</ele>
        <time>2020-10-08T09:16:55Z</time>
      </trkpt>
      <trkpt lat="47.00145" lon="5.84855">
        <ele>268</ele>
        <time>2020-10-08T09:17:00Z</time>
      </trkpt>
      <trkpt lat="47.00134" lon="5.84871">
        <ele>267</ele>
        <time>2020-10-08T09:17:14Z</time>
      </trkpt>
      <trkpt lat="47.0011" lon="5.84874">
        <ele>266</ele>
        <time>2020-10-08T09:17:36Z</time>
      </trkpt>
      <trkpt lat="47.00099" lon="5.8487">
        <ele>265</ele>
        <time>2020-10-08T09:17:48Z</time>
      </trkpt>
      <trkpt lat="47.00094" lon="5.84866">
        <ele>265</ele>
        <time>2020-10-08T09:17:54Z</time>
      </trkpt>
      <trkpt lat="47.00079" lon="5.84867">
        <ele>264</ele>
        <time>2020-10-08T09:18:10Z</time>
      </trkpt>
      <trkpt lat="47.00068" lon="5.84872">
        <ele>264</ele>
        <time>2020-10-08T09:18:21Z</time>
      </trkpt>
      <trkpt lat="47.0004" lon="5.84885">
        <ele>262</ele>
        <time>2020-10-08T09:18:46Z</time>
      </trkpt>
      <trkpt lat="47.00018" lon="5.84889">
        <ele>262</ele>
        <time>2020-10-08T09:19:02Z</time>
      </trkpt>
      <trkpt lat="47.00012" lon="5.84892">
        <ele>261</ele>
        <time>2020-10-08T09:19:07Z</time>
      </trkpt>
      <trkpt lat="47" lon="5.84895">
        <ele>261</ele>
        <time>2020-10-08T09:19:16Z</time>
      </trkpt>
      <trkpt lat="46.99995" lon="5.84899">
        <ele>261</ele>
        <time>2020-10-08T09:19:20Z</time>
      </trkpt>
      <trkpt lat="46.99982" lon="5.84901">
        <ele>261</ele>
        <time>2020-10-08T09:19:32Z</time>
      </trkpt>
      <trkpt lat="46.99943" lon="5.84918">
        <ele>259</ele>
        <time>2020-10-08T09:20:04Z</time>
      </trkpt>
      <trkpt lat="46.99933" lon="5.84924">
        <ele>259</ele>
        <time>2020-10-08T09:20:12Z</time>
      </trkpt>
      <trkpt lat="46.99924" lon="5.84935">
        <ele>259</ele>
        <time>2020-10-08T09:20:21Z</time>
      </trkpt>
      <trkpt lat="46.99916" lon="5.84949">
        <ele>259</ele>
        <time>2020-10-08T09:20:31Z</time>
      </trkpt>
      <trkpt lat="46.99909" lon="5.84969">
        <ele>258</ele>
        <time>2020-10-08T09:20:42Z</time>
      </trkpt>
      <trkpt lat="46.99901" lon="5.85008">
        <ele>257</ele>
        <time>2020-10-08T09:21:05Z</time>
      </trkpt>
      <trkpt lat="46.99898" lon="5.85015">
        <ele>257</ele>
        <time>2020-10-08T09:21:10Z</time>
      </trkpt>
      <trkpt lat="46.99884" lon="5.85076">
        <ele>255</ele>
        <time>2020-10-08T09:21:44Z</time>
      </trkpt>
      <trkpt lat="46.99883" lon="5.85084">
        <ele>255</ele>
        <time>2020-10-08T09:21:50Z</time>
      </trkpt>
      <trkpt lat="46.99876" lon="5.85099">
        <ele>254</ele>
        <time>2020-10-08T09:22:00Z</time>
      </trkpt>
      <trkpt lat="46.99869" lon="5.85112">
        <ele>254</ele>
        <time>2020-10-08T09:22:09Z</time>
      </trkpt>
      <trkpt lat="46.99867" lon="5.8512">
        <ele>254</ele>
        <time>2020-10-08T09:22:14Z</time>
      </trkpt>
      <trkpt lat="46.99857" lon="5.85142">
        <ele>253</ele>
        <time>2020-10-08T09:22:32Z</time>
      </trkpt>
      <trkpt lat="46.99857" lon="5.85151">
        <ele>253</ele>
        <time>2020-10-08T09:22:40Z</time>
      </trkpt>
      <trkpt lat="46.99856" lon="5.85163">
        <ele>253</ele>
        <time>2020-10-08T09:23:16Z</time>
      </trkpt>
      <trkpt lat="46.99857" lon="5.85179">
        <ele>252</ele>
        <time>2020-10-08T09:23:28Z</time>
      </trkpt>
      <trkpt lat="46.99861" lon="5.85213">
        <ele>252</ele>
        <time>2020-10-08T09:23:49Z</time>
      </trkpt>
      <trkpt lat="46.99866" lon="5.85228">
        <ele>252</ele>
        <time>2020-10-08T09:23:59Z</time>
      </trkpt>
      <trkpt lat="46.99865" lon="5.8524">
        <ele>252</ele>
        <time>2020-10-08T09:24:09Z</time>
      </trkpt>
      <trkpt lat="46.99864" lon="5.85248">
        <ele>252</ele>
        <time>2020-10-08T09:24:14Z</time>
      </trkpt>
      <trkpt lat="46.99865" lon="5.85257">
        <ele>252</ele>
        <time>2020-10-08T09:24:19Z</time>
      </trkpt>
      <trkpt lat="46.99858" lon="5.85309">
        <ele>254</ele>
        <time>2020-10-08T09:24:58Z</time>
      </trkpt>
      <trkpt lat="46.99854" lon="5.85339">
        <ele>253</ele>
        <time>2020-10-08T09:25:18Z</time>
      </trkpt>
      <trkpt lat="46.99854" lon="5.85355">
        <ele>253</ele>
        <time>2020-10-08T09:25:29Z</time>
      </trkpt>
      <trkpt lat="46.99863" lon="5.85368">
        <ele>252</ele>
        <time>2020-10-08T09:25:40Z</time>
      </trkpt>
      <trkpt lat="46.99869" lon="5.8537">
        <ele>252</ele>
        <time>2020-10-08T09:25:48Z</time>
      </trkpt>
      <trkpt lat="46.99873" lon="5.85366">
        <ele>251</ele>
        <time>2020-10-08T09:25:54Z</time>
      </trkpt>
      <trkpt lat="46.99885" lon="5.85367">
        <ele>250</ele>
        <time>2020-10-08T09:26:03Z</time>
      </trkpt>
      <trkpt lat="46.9989" lon="5.85367">
        <ele>250</ele>
        <time>2020-10-08T09:26:09Z</time>
      </trkpt>
      <trkpt lat="46.99895" lon="5.85361">
        <ele>250</ele>
        <time>2020-10-08T09:26:13Z</time>
      </trkpt>
      <trkpt lat="46.99895" lon="5.8535">
        <ele>249</ele>
        <time>2020-10-08T09:26:23Z</time>
      </trkpt>
      <trkpt lat="46.9989" lon="5.85345">
        <ele>249</ele>
        <time>2020-10-08T09:26:53Z</time>
      </trkpt>
      <trkpt lat="46.99883" lon="5.85344">
        <ele>251</ele>
        <time>2020-10-08T09:27:06Z</time>
      </trkpt>
      <trkpt lat="46.99878" lon="5.8534">
        <ele>251</ele>
        <time>2020-10-08T09:27:11Z</time>
      </trkpt>
      <trkpt lat="46.99872" lon="5.85341">
        <ele>251</ele>
        <time>2020-10-08T09:27:25Z</time>
      </trkpt>
      <trkpt lat="46.99871" lon="5.85343">
        <ele>251</ele>
        <time>2020-10-08T09:28:59Z</time>
      </trkpt>
      <trkpt lat="46.99872" lon="5.85357">
        <ele>252</ele>
        <time>2020-10-08T09:30:20Z</time>
      </trkpt>
      <trkpt lat="46.99867" lon="5.85366">
        <ele>252</ele>
        <time>2020-10-08T09:30:50Z</time>
      </trkpt>
      <trkpt lat="46.99861" lon="5.8536">
        <ele>252</ele>
        <time>2020-10-08T09:31:26Z</time>
      </trkpt>
      <trkpt lat="46.99866" lon="5.85339">
        <ele>253</ele>
        <time>2020-10-08T09:32:57Z</time>
      </trkpt>
      <trkpt lat="46.99874" lon="5.8534">
        <ele>254</ele>
        <time>2020-10-08T09:33:21Z</time>
      </trkpt>
      <trkpt lat="46.99878" lon="5.85342">
        <ele>258</ele>
        <time>2020-10-08T09:50:42Z</time>
      </trkpt>
      <trkpt lat="46.99869" lon="5.85349">
        <ele>258</ele>
        <time>2020-10-08T09:55:23Z</time>
      </trkpt>
      <trkpt lat="46.99874" lon="5.85351">
        <ele>259</ele>
        <time>2020-10-08T10:00:26Z</time>
      </trkpt>
      <trkpt lat="46.99868" lon="5.85346">
        <ele>258</ele>
        <time>2020-10-08T10:04:58Z</time>
      </trkpt>
      <trkpt lat="46.99864" lon="5.85341">
        <ele>258</ele>
        <time>2020-10-08T10:06:33Z</time>
      </trkpt>
      <trkpt lat="46.99864" lon="5.85343">
        <ele>258</ele>
        <time>2020-10-08T10:07:32Z</time>
      </trkpt>
      <trkpt lat="46.99878" lon="5.85346">
        <ele>258</ele>
        <time>2020-10-08T10:08:19Z</time>
      </trkpt>
      <trkpt lat="46.99872" lon="5.85344">
        <ele>258</ele>
        <time>2020-10-08T10:09:29Z</time>
      </trkpt>
      <trkpt lat="46.99867" lon="5.85335">
        <ele>258</ele>
        <time>2020-10-08T10:11:08Z</time>
      </trkpt>
      <trkpt lat="46.99863" lon="5.85345">
        <ele>258</ele>
        <time>2020-10-08T10:11:57Z</time>
      </trkpt>
      <trkpt lat="46.99867" lon="5.85353">
        <ele>258</ele>
        <time>2020-10-08T10:13:25Z</time>
      </trkpt>
      <trkpt lat="46.99877" lon="5.85355">
        <ele>259</ele>
        <time>2020-10-08T10:14:12Z</time>
      </trkpt>
      <trkpt lat="46.99876" lon="5.85346">
        <ele>258</ele>
        <time>2020-10-08T10:15:18Z</time>
      </trkpt>
      <trkpt lat="46.99871" lon="5.85341">
        <ele>258</ele>
        <time>2020-10-08T10:15:30Z</time>
      </trkpt>
      <trkpt lat="46.99865" lon="5.85338">
        <ele>258</ele>
        <time>2020-10-08T10:15:42Z</time>
      </trkpt>
      <trkpt lat="46.99867" lon="5.85347">
        <ele>258</ele>
        <time>2020-10-08T10:16:30Z</time>
      </trkpt>
      <trkpt lat="46.99868" lon="5.85357">
        <ele>258</ele>
        <time>2020-10-08T10:16:42Z</time>
      </trkpt>
      <trkpt lat="46.99872" lon="5.85365">
        <ele>260</ele>
        <time>2020-10-08T10:16:59Z</time>
      </trkpt>
      <trkpt lat="46.99869" lon="5.85375">
        <ele>260</ele>
        <time>2020-10-08T10:17:19Z</time>
      </trkpt>
      <trkpt lat="46.99863" lon="5.85379">
        <ele>260</ele>
        <time>2020-10-08T10:17:39Z</time>
      </trkpt>
      <trkpt lat="46.99853" lon="5.85393">
        <ele>260</ele>
        <time>2020-10-08T10:18:03Z</time>
      </trkpt>
      <trkpt lat="46.99843" lon="5.85419">
        <ele>260</ele>
        <time>2020-10-08T10:18:26Z</time>
      </trkpt>
      <trkpt lat="46.99839" lon="5.85424">
        <ele>260</ele>
        <time>2020-10-08T10:18:46Z</time>
      </trkpt>
      <trkpt lat="46.99811" lon="5.85448">
        <ele>262</ele>
        <time>2020-10-08T10:19:16Z</time>
      </trkpt>
      <trkpt lat="46.99808" lon="5.85455">
        <ele>262</ele>
        <time>2020-10-08T10:19:21Z</time>
      </trkpt>
      <trkpt lat="46.99799" lon="5.85471">
        <ele>262</ele>
        <time>2020-10-08T10:19:36Z</time>
      </trkpt>
      <trkpt lat="46.99786" lon="5.85508">
        <ele>264</ele>
        <time>2020-10-08T10:20:02Z</time>
      </trkpt>
      <trkpt lat="46.99788" lon="5.85516">
        <ele>264</ele>
        <time>2020-10-08T10:20:07Z</time>
      </trkpt>
      <trkpt lat="46.99786" lon="5.85549">
        <ele>265</ele>
        <time>2020-10-08T10:20:27Z</time>
      </trkpt>
      <trkpt lat="46.99785" lon="5.85558">
        <ele>265</ele>
        <time>2020-10-08T10:20:34Z</time>
      </trkpt>
      <trkpt lat="46.99784" lon="5.85571">
        <ele>265</ele>
        <time>2020-10-08T10:20:49Z</time>
      </trkpt>
      <trkpt lat="46.99783" lon="5.85583">
        <ele>265</ele>
        <time>2020-10-08T10:20:58Z</time>
      </trkpt>
      <trkpt lat="46.99782" lon="5.85631">
        <ele>266</ele>
        <time>2020-10-08T10:21:28Z</time>
      </trkpt>
      <trkpt lat="46.99781" lon="5.85643">
        <ele>267</ele>
        <time>2020-10-08T10:21:38Z</time>
      </trkpt>
      <trkpt lat="46.99782" lon="5.85653">
        <ele>267</ele>
        <time>2020-10-08T10:21:47Z</time>
      </trkpt>
      <trkpt lat="46.9978" lon="5.85663">
        <ele>267</ele>
        <time>2020-10-08T10:21:53Z</time>
      </trkpt>
      <trkpt lat="46.99775" lon="5.85677">
        <ele>267</ele>
        <time>2020-10-08T10:22:01Z</time>
      </trkpt>
      <trkpt lat="46.99772" lon="5.85722">
        <ele>268</ele>
        <time>2020-10-08T10:22:27Z</time>
      </trkpt>
      <trkpt lat="46.9977" lon="5.8573">
        <ele>269</ele>
        <time>2020-10-08T10:22:33Z</time>
      </trkpt>
      <trkpt lat="46.9976" lon="5.85734">
        <ele>270</ele>
        <time>2020-10-08T10:22:46Z</time>
      </trkpt>
      <trkpt lat="46.99743" lon="5.85723">
        <ele>270</ele>
        <time>2020-10-08T10:22:59Z</time>
      </trkpt>
      <trkpt lat="46.99737" lon="5.85723">
        <ele>271</ele>
        <time>2020-10-08T10:23:04Z</time>
      </trkpt>
      <trkpt lat="46.99725" lon="5.85718">
        <ele>272</ele>
        <time>2020-10-08T10:23:16Z</time>
      </trkpt>
      <trkpt lat="46.9972" lon="5.85714">
        <ele>272</ele>
        <time>2020-10-08T10:23:20Z</time>
      </trkpt>
      <trkpt lat="46.99703" lon="5.8572">
        <ele>273</ele>
        <time>2020-10-08T10:23:39Z</time>
      </trkpt>
      <trkpt lat="46.99701" lon="5.85731">
        <ele>274</ele>
        <time>2020-10-08T10:23:47Z</time>
      </trkpt>
      <trkpt lat="46.99695" lon="5.85745">
        <ele>275</ele>
        <time>2020-10-08T10:23:57Z</time>
      </trkpt>
      <trkpt lat="46.99692" lon="5.8577">
        <ele>275</ele>
        <time>2020-10-08T10:24:15Z</time>
      </trkpt>
      <trkpt lat="46.99685" lon="5.85777">
        <ele>276</ele>
        <time>2020-10-08T10:24:25Z</time>
      </trkpt>
      <trkpt lat="46.99672" lon="5.85782">
        <ele>276</ele>
        <time>2020-10-08T10:24:34Z</time>
      </trkpt>
      <trkpt lat="46.99648" lon="5.85802">
        <ele>278</ele>
        <time>2020-10-08T10:25:03Z</time>
      </trkpt>
      <trkpt lat="46.99643" lon="5.85812">
        <ele>278</ele>
        <time>2020-10-08T10:25:12Z</time>
      </trkpt>
      <trkpt lat="46.99638" lon="5.85817">
        <ele>279</ele>
        <time>2020-10-08T10:25:17Z</time>
      </trkpt>
      <trkpt lat="46.99634" lon="5.85825">
        <ele>279</ele>
        <time>2020-10-08T10:25:25Z</time>
      </trkpt>
      <trkpt lat="46.99604" lon="5.85854">
        <ele>281</ele>
        <time>2020-10-08T10:25:58Z</time>
      </trkpt>
      <trkpt lat="46.99595" lon="5.85878">
        <ele>283</ele>
        <time>2020-10-08T10:26:16Z</time>
      </trkpt>
      <trkpt lat="46.99591" lon="5.85884">
        <ele>283</ele>
        <time>2020-10-08T10:26:21Z</time>
      </trkpt>
      <trkpt lat="46.99586" lon="5.85894">
        <ele>284</ele>
        <time>2020-10-08T10:26:30Z</time>
      </trkpt>
      <trkpt lat="46.99572" lon="5.85912">
        <ele>284</ele>
        <time>2020-10-08T10:26:44Z</time>
      </trkpt>
      <trkpt lat="46.99566" lon="5.85914">
        <ele>285</ele>
        <time>2020-10-08T10:26:50Z</time>
      </trkpt>
      <trkpt lat="46.99558" lon="5.85915">
        <ele>285</ele>
        <time>2020-10-08T10:26:58Z</time>
      </trkpt>
      <trkpt lat="46.99547" lon="5.85922">
        <ele>285</ele>
        <time>2020-10-08T10:27:09Z</time>
      </trkpt>
      <trkpt lat="46.99535" lon="5.85925">
        <ele>285</ele>
        <time>2020-10-08T10:27:24Z</time>
      </trkpt>
      <trkpt lat="46.99527" lon="5.85923">
        <ele>285</ele>
        <time>2020-10-08T10:28:31Z</time>
      </trkpt>
      <trkpt lat="46.99518" lon="5.85925">
        <ele>285</ele>
        <time>2020-10-08T10:29:07Z</time>
      </trkpt>
      <trkpt lat="46.99511" lon="5.85924">
        <ele>286</ele>
        <time>2020-10-08T10:29:13Z</time>
      </trkpt>
      <trkpt lat="46.99506" lon="5.85924">
        <ele>286</ele>
        <time>2020-10-08T10:29:16Z</time>
      </trkpt>
      <trkpt lat="46.995" lon="5.85922">
        <ele>286</ele>
        <time>2020-10-08T10:29:22Z</time>
      </trkpt>
      <trkpt lat="46.99476" lon="5.85932">
        <ele>287</ele>
        <time>2020-10-08T10:29:43Z</time>
      </trkpt>
      <trkpt lat="46.99471" lon="5.85937">
        <ele>287</ele>
        <time>2020-10-08T10:29:48Z</time>
      </trkpt>
      <trkpt lat="46.99466" lon="5.85941">
        <ele>288</ele>
        <time>2020-10-08T10:29:53Z</time>
      </trkpt>
      <trkpt lat="46.99438" lon="5.85971">
        <ele>289</ele>
        <time>2020-10-08T10:30:24Z</time>
      </trkpt>
      <trkpt lat="46.99428" lon="5.85981">
        <ele>290</ele>
        <time>2020-10-08T10:30:34Z</time>
      </trkpt>
      <trkpt lat="46.99424" lon="5.8599">
        <ele>291</ele>
        <time>2020-10-08T10:30:41Z</time>
      </trkpt>
      <trkpt lat="46.99415" lon="5.86001">
        <ele>292</ele>
        <time>2020-10-08T10:30:53Z</time>
      </trkpt>
      <trkpt lat="46.99413" lon="5.86009">
        <ele>292</ele>
        <time>2020-10-08T10:30:59Z</time>
      </trkpt>
      <trkpt lat="46.99404" lon="5.86024">
        <ele>292</ele>
        <time>2020-10-08T10:31:09Z</time>
      </trkpt>
      <trkpt lat="46.99398" lon="5.86047">
        <ele>292</ele>
        <time>2020-10-08T10:31:24Z</time>
      </trkpt>
      <trkpt lat="46.99395" lon="5.86075">
        <ele>293</ele>
        <time>2020-10-08T10:31:39Z</time>
      </trkpt>
      <trkpt lat="46.99398" lon="5.861">
        <ele>294</ele>
        <time>2020-10-08T10:31:53Z</time>
      </trkpt>
      <trkpt lat="46.99395" lon="5.86121">
        <ele>296</ele>
        <time>2020-10-08T10:32:08Z</time>
      </trkpt>
      <trkpt lat="46.99387" lon="5.86141">
        <ele>298</ele>
        <time>2020-10-08T10:32:29Z</time>
      </trkpt>
      <trkpt lat="46.99378" lon="5.86148">
        <ele>299</ele>
        <time>2020-10-08T10:32:55Z</time>
      </trkpt>
      <trkpt lat="46.99363" lon="5.86149">
        <ele>301</ele>
        <time>2020-10-08T10:33:12Z</time>
      </trkpt>
      <trkpt lat="46.99347" lon="5.86147">
        <ele>302</ele>
        <time>2020-10-08T10:33:28Z</time>
      </trkpt>
      <trkpt lat="46.9934" lon="5.86148">
        <ele>303</ele>
        <time>2020-10-08T10:33:35Z</time>
      </trkpt>
      <trkpt lat="46.99333" lon="5.86146">
        <ele>304</ele>
        <time>2020-10-08T10:33:42Z</time>
      </trkpt>
      <trkpt lat="46.99325" lon="5.86149">
        <ele>305</ele>
        <time>2020-10-08T10:33:49Z</time>
      </trkpt>
      <trkpt lat="46.99294" lon="5.86165">
        <ele>309</ele>
        <time>2020-10-08T10:34:24Z</time>
      </trkpt>
      <trkpt lat="46.99269" lon="5.86178">
        <ele>314</ele>
        <time>2020-10-08T10:34:59Z</time>
      </trkpt>
      <trkpt lat="46.99253" lon="5.8619">
        <ele>317</ele>
        <time>2020-10-08T10:35:20Z</time>
      </trkpt>
      <trkpt lat="46.99242" lon="5.86195">
        <ele>319</ele>
        <time>2020-10-08T10:35:34Z</time>
      </trkpt>
      <trkpt lat="46.99235" lon="5.86204">
        <ele>321</ele>
        <time>2020-10-08T10:35:49Z</time>
      </trkpt>
      <trkpt lat="46.99224" lon="5.86208">
        <ele>323</ele>
        <time>2020-10-08T10:36:03Z</time>
      </trkpt>
      <trkpt lat="46.99218" lon="5.86216">
        <ele>324</ele>
        <time>2020-10-08T10:36:16Z</time>
      </trkpt>
      <trkpt lat="46.9921" lon="5.86217">
        <ele>325</ele>
        <time>2020-10-08T10:36:24Z</time>
      </trkpt>
      <trkpt lat="46.99202" lon="5.86225">
        <ele>327</ele>
        <time>2020-10-08T10:36:38Z</time>
      </trkpt>
      <trkpt lat="46.99196" lon="5.86233">
        <ele>328</ele>
        <time>2020-10-08T10:36:46Z</time>
      </trkpt>
      <trkpt lat="46.99175" lon="5.86252">
        <ele>334</ele>
        <time>2020-10-08T10:37:26Z</time>
      </trkpt>
      <trkpt lat="46.9917" lon="5.86277">
        <ele>337</ele>
        <time>2020-10-08T10:37:50Z</time>
      </trkpt>
      <trkpt lat="46.99161" lon="5.86299">
        <ele>341</ele>
        <time>2020-10-08T10:38:15Z</time>
      </trkpt>
      <trkpt lat="46.99159" lon="5.86308">
        <ele>342</ele>
        <time>2020-10-08T10:38:23Z</time>
      </trkpt>
      <trkpt lat="46.9916" lon="5.8632">
        <ele>345</ele>
        <time>2020-10-08T10:38:37Z</time>
      </trkpt>
      <trkpt lat="46.99156" lon="5.86331">
        <ele>346</ele>
        <time>2020-10-08T10:38:51Z</time>
      </trkpt>
      <trkpt lat="46.99153" lon="5.86341">
        <ele>349</ele>
        <time>2020-10-08T10:39:09Z</time>
      </trkpt>
      <trkpt lat="46.99158" lon="5.86358">
        <ele>351</ele>
        <time>2020-10-08T10:39:27Z</time>
      </trkpt>
      <trkpt lat="46.99158" lon="5.86373">
        <ele>352</ele>
        <time>2020-10-08T10:39:41Z</time>
      </trkpt>
      <trkpt lat="46.99161" lon="5.86384">
        <ele>354</ele>
        <time>2020-10-08T10:39:52Z</time>
      </trkpt>
      <trkpt lat="46.99181" lon="5.86418">
        <ele>357</ele>
        <time>2020-10-08T10:40:24Z</time>
      </trkpt>
      <trkpt lat="46.99192" lon="5.86473">
        <ele>360</ele>
        <time>2020-10-08T10:41:05Z</time>
      </trkpt>
      <trkpt lat="46.99206" lon="5.86502">
        <ele>363</ele>
        <time>2020-10-08T10:41:34Z</time>
      </trkpt>
      <trkpt lat="46.9921" lon="5.86528">
        <ele>364</ele>
        <time>2020-10-08T10:41:53Z</time>
      </trkpt>
      <trkpt lat="46.99217" lon="5.86552">
        <ele>367</ele>
        <time>2020-10-08T10:42:15Z</time>
      </trkpt>
      <trkpt lat="46.99222" lon="5.86599">
        <ele>373</ele>
        <time>2020-10-08T10:43:01Z</time>
      </trkpt>
      <trkpt lat="46.99224" lon="5.86648">
        <ele>378</ele>
        <time>2020-10-08T10:43:40Z</time>
      </trkpt>
      <trkpt lat="46.99219" lon="5.8667">
        <ele>382</ele>
        <time>2020-10-08T10:44:10Z</time>
      </trkpt>
      <trkpt lat="46.99218" lon="5.86717">
        <ele>385</ele>
        <time>2020-10-08T10:44:43Z</time>
      </trkpt>
      <trkpt lat="46.9922" lon="5.86739">
        <ele>387</ele>
        <time>2020-10-08T10:45:01Z</time>
      </trkpt>
      <trkpt lat="46.99215" lon="5.86766">
        <ele>390</ele>
        <time>2020-10-08T10:45:23Z</time>
      </trkpt>
      <trkpt lat="46.99214" lon="5.86793">
        <ele>393</ele>
        <time>2020-10-08T10:45:50Z</time>
      </trkpt>
      <trkpt lat="46.99213" lon="5.86815">
        <ele>395</ele>
        <time>2020-10-08T10:46:30Z</time>
      </trkpt>
      <trkpt lat="46.99203" lon="5.86814">
        <ele>400</ele>
        <time>2020-10-08T10:47:31Z</time>
      </trkpt>
      <trkpt lat="46.99204" lon="5.86816">
        <ele>400</ele>
        <time>2020-10-08T10:49:06Z</time>
      </trkpt>
      <trkpt lat="46.992" lon="5.86813">
        <ele>399</ele>
        <time>2020-10-08T10:50:53Z</time>
      </trkpt>
      <trkpt lat="46.99193" lon="5.86815">
        <ele>399</ele>
        <time>2020-10-08T10:51:00Z</time>
      </trkpt>
      <trkpt lat="46.9921" lon="5.86816">
        <ele>399</ele>
        <time>2020-10-08T10:51:35Z</time>
      </trkpt>
      <trkpt lat="46.99205" lon="5.86805">
        <ele>399</ele>
        <time>2020-10-08T10:52:18Z</time>
      </trkpt>
      <trkpt lat="46.99194" lon="5.86807">
        <ele>398</ele>
        <time>2020-10-08T10:52:44Z</time>
      </trkpt>
      <trkpt lat="46.99186" lon="5.868">
        <ele>401</ele>
        <time>2020-10-08T10:53:49Z</time>
      </trkpt>
      <trkpt lat="46.9917" lon="5.86796">
        <ele>402</ele>
        <time>2020-10-08T10:54:03Z</time>
      </trkpt>
      <trkpt lat="46.99159" lon="5.86788">
        <ele>404</ele>
        <time>2020-10-08T10:54:21Z</time>
      </trkpt>
      <trkpt lat="46.99117" lon="5.8677">
        <ele>412</ele>
        <time>2020-10-08T10:55:17Z</time>
      </trkpt>
      <trkpt lat="46.99097" lon="5.86775">
        <ele>415</ele>
        <time>2020-10-08T10:55:45Z</time>
      </trkpt>
      <trkpt lat="46.99093" lon="5.86754">
        <ele>413</ele>
        <time>2020-10-08T10:56:09Z</time>
      </trkpt>
      <trkpt lat="46.99097" lon="5.86731">
        <ele>412</ele>
        <time>2020-10-08T10:56:22Z</time>
      </trkpt>
      <trkpt lat="46.99079" lon="5.86694">
        <ele>411</ele>
        <time>2020-10-08T10:56:58Z</time>
      </trkpt>
      <trkpt lat="46.99063" lon="5.86653">
        <ele>410</ele>
        <time>2020-10-08T10:57:17Z</time>
      </trkpt>
      <trkpt lat="46.99058" lon="5.86647">
        <ele>410</ele>
        <time>2020-10-08T10:57:25Z</time>
      </trkpt>
      <trkpt lat="46.99053" lon="5.86637">
        <ele>410</ele>
        <time>2020-10-08T10:57:32Z</time>
      </trkpt>
      <trkpt lat="46.99021" lon="5.86594">
        <ele>408</ele>
        <time>2020-10-08T10:58:14Z</time>
      </trkpt>
      <trkpt lat="46.99008" lon="5.86578">
        <ele>408</ele>
        <time>2020-10-08T10:58:27Z</time>
      </trkpt>
      <trkpt lat="46.99003" lon="5.86568">
        <ele>407</ele>
        <time>2020-10-08T10:58:35Z</time>
      </trkpt>
      <trkpt lat="46.98985" lon="5.86546">
        <ele>406</ele>
        <time>2020-10-08T10:59:01Z</time>
      </trkpt>
      <trkpt lat="46.98973" lon="5.86524">
        <ele>405</ele>
        <time>2020-10-08T10:59:19Z</time>
      </trkpt>
      <trkpt lat="46.98961" lon="5.86513">
        <ele>404</ele>
        <time>2020-10-08T10:59:36Z</time>
      </trkpt>
      <trkpt lat="46.98956" lon="5.86502">
        <ele>403</ele>
        <time>2020-10-08T10:59:46Z</time>
      </trkpt>
      <trkpt lat="46.98927" lon="5.86467">
        <ele>398</ele>
        <time>2020-10-08T11:00:35Z</time>
      </trkpt>
      <trkpt lat="46.98914" lon="5.8643">
        <ele>396</ele>
        <time>2020-10-08T11:00:57Z</time>
      </trkpt>
      <trkpt lat="46.98887" lon="5.86377">
        <ele>393</ele>
        <time>2020-10-08T11:01:29Z</time>
      </trkpt>
      <trkpt lat="46.98869" lon="5.86355">
        <ele>391</ele>
        <time>2020-10-08T11:01:51Z</time>
      </trkpt>
      <trkpt lat="46.98867" lon="5.86344">
        <ele>391</ele>
        <time>2020-10-08T11:01:57Z</time>
      </trkpt>
      <trkpt lat="46.9886" lon="5.86336">
        <ele>390</ele>
        <time>2020-10-08T11:02:07Z</time>
      </trkpt>
      <trkpt lat="46.98844" lon="5.86308">
        <ele>389</ele>
        <time>2020-10-08T11:02:25Z</time>
      </trkpt>
      <trkpt lat="46.98833" lon="5.86303">
        <ele>388</ele>
        <time>2020-10-08T11:02:37Z</time>
      </trkpt>
      <trkpt lat="46.98824" lon="5.86291">
        <ele>387</ele>
        <time>2020-10-08T11:02:50Z</time>
      </trkpt>
      <trkpt lat="46.98815" lon="5.86281">
        <ele>386</ele>
        <time>2020-10-08T11:03:00Z</time>
      </trkpt>
      <trkpt lat="46.98807" lon="5.86276">
        <ele>385</ele>
        <time>2020-10-08T11:03:12Z</time>
      </trkpt>
      <trkpt lat="46.98779" lon="5.86246">
        <ele>384</ele>
        <time>2020-10-08T11:03:50Z</time>
      </trkpt>
      <trkpt lat="46.98757" lon="5.86216">
        <ele>383</ele>
        <time>2020-10-08T11:04:13Z</time>
      </trkpt>
      <trkpt lat="46.98749" lon="5.86211">
        <ele>382</ele>
        <time>2020-10-08T11:04:22Z</time>
      </trkpt>
      <trkpt lat="46.98734" lon="5.86196">
        <ele>382</ele>
        <time>2020-10-08T11:04:40Z</time>
      </trkpt>
      <trkpt lat="46.98729" lon="5.86188">
        <ele>382</ele>
        <time>2020-10-08T11:04:48Z</time>
      </trkpt>
      <trkpt lat="46.98694" lon="5.86162">
        <ele>381</ele>
        <time>2020-10-08T11:05:24Z</time>
      </trkpt>
      <trkpt lat="46.98688" lon="5.86155">
        <ele>381</ele>
        <time>2020-10-08T11:05:30Z</time>
      </trkpt>
      <trkpt lat="46.98675" lon="5.86145">
        <ele>381</ele>
        <time>2020-10-08T11:05:41Z</time>
      </trkpt>
      <trkpt lat="46.98651" lon="5.86113">
        <ele>380</ele>
        <time>2020-10-08T11:06:03Z</time>
      </trkpt>
      <trkpt lat="46.98644" lon="5.86111">
        <ele>380</ele>
        <time>2020-10-08T11:06:08Z</time>
      </trkpt>
      <trkpt lat="46.98629" lon="5.861">
        <ele>380</ele>
        <time>2020-10-08T11:06:25Z</time>
      </trkpt>
      <trkpt lat="46.98594" lon="5.86091">
        <ele>379</ele>
        <time>2020-10-08T11:06:58Z</time>
      </trkpt>
      <trkpt lat="46.98587" lon="5.86088">
        <ele>379</ele>
        <time>2020-10-08T11:07:05Z</time>
      </trkpt>
      <trkpt lat="46.9858" lon="5.86084">
        <ele>379</ele>
        <time>2020-10-08T11:07:13Z</time>
      </trkpt>
      <trkpt lat="46.98565" lon="5.8608">
        <ele>378</ele>
        <time>2020-10-08T11:07:25Z</time>
      </trkpt>
      <trkpt lat="46.98558" lon="5.86075">
        <ele>378</ele>
        <time>2020-10-08T11:07:31Z</time>
      </trkpt>
      <trkpt lat="46.9855" lon="5.86075">
        <ele>378</ele>
        <time>2020-10-08T11:07:38Z</time>
      </trkpt>
      <trkpt lat="46.98522" lon="5.86072">
        <ele>380</ele>
        <time>2020-10-08T11:08:06Z</time>
      </trkpt>
      <trkpt lat="46.98497" lon="5.86061">
        <ele>382</ele>
        <time>2020-10-08T11:08:26Z</time>
      </trkpt>
      <trkpt lat="46.98474" lon="5.86057">
        <ele>383</ele>
        <time>2020-10-08T11:08:45Z</time>
      </trkpt>
      <trkpt lat="46.98467" lon="5.8605">
        <ele>384</ele>
        <time>2020-10-08T11:08:51Z</time>
      </trkpt>
      <trkpt lat="46.98457" lon="5.86048">
        <ele>385</ele>
        <time>2020-10-08T11:09:01Z</time>
      </trkpt>
      <trkpt lat="46.9845" lon="5.86043">
        <ele>385</ele>
        <time>2020-10-08T11:09:07Z</time>
      </trkpt>
      <trkpt lat="46.98433" lon="5.86026">
        <ele>385</ele>
        <time>2020-10-08T11:09:28Z</time>
      </trkpt>
      <trkpt lat="46.98426" lon="5.86024">
        <ele>386</ele>
        <time>2020-10-08T11:09:36Z</time>
      </trkpt>
      <trkpt lat="46.98419" lon="5.86016">
        <ele>386</ele>
        <time>2020-10-08T11:09:47Z</time>
      </trkpt>
      <trkpt lat="46.9841" lon="5.86014">
        <ele>386</ele>
        <time>2020-10-08T11:09:55Z</time>
      </trkpt>
      <trkpt lat="46.98404" lon="5.86007">
        <ele>386</ele>
        <time>2020-10-08T11:10:00Z</time>
      </trkpt>
      <trkpt lat="46.98388" lon="5.85999">
        <ele>387</ele>
        <time>2020-10-08T11:10:15Z</time>
      </trkpt>
      <trkpt lat="46.98376" lon="5.85986">
        <ele>386</ele>
        <time>2020-10-08T11:10:27Z</time>
      </trkpt>
      <trkpt lat="46.98371" lon="5.8598">
        <ele>386</ele>
        <time>2020-10-08T11:10:34Z</time>
      </trkpt>
      <trkpt lat="46.98364" lon="5.85976">
        <ele>386</ele>
        <time>2020-10-08T11:10:39Z</time>
      </trkpt>
      <trkpt lat="46.98346" lon="5.85962">
        <ele>383</ele>
        <time>2020-10-08T11:11:05Z</time>
      </trkpt>
      <trkpt lat="46.98336" lon="5.85947">
        <ele>382</ele>
        <time>2020-10-08T11:11:16Z</time>
      </trkpt>
      <trkpt lat="46.98322" lon="5.85937">
        <ele>381</ele>
        <time>2020-10-08T11:11:28Z</time>
      </trkpt>
      <trkpt lat="46.9831" lon="5.85924">
        <ele>380</ele>
        <time>2020-10-08T11:11:38Z</time>
      </trkpt>
      <trkpt lat="46.98294" lon="5.85913">
        <ele>380</ele>
        <time>2020-10-08T11:11:53Z</time>
      </trkpt>
      <trkpt lat="46.98282" lon="5.85899">
        <ele>379</ele>
        <time>2020-10-08T11:12:07Z</time>
      </trkpt>
      <trkpt lat="46.98261" lon="5.85884">
        <ele>378</ele>
        <time>2020-10-08T11:12:25Z</time>
      </trkpt>
      <trkpt lat="46.98254" lon="5.85882">
        <ele>378</ele>
        <time>2020-10-08T11:12:32Z</time>
      </trkpt>
      <trkpt lat="46.98218" lon="5.8585">
        <ele>376</ele>
        <time>2020-10-08T11:13:03Z</time>
      </trkpt>
      <trkpt lat="46.98183" lon="5.85822">
        <ele>373</ele>
        <time>2020-10-08T11:13:41Z</time>
      </trkpt>
      <trkpt lat="46.98172" lon="5.85803">
        <ele>372</ele>
        <time>2020-10-08T11:13:59Z</time>
      </trkpt>
      <trkpt lat="46.98163" lon="5.85782">
        <ele>372</ele>
        <time>2020-10-08T11:14:09Z</time>
      </trkpt>
      <trkpt lat="46.9816" lon="5.85772">
        <ele>372</ele>
        <time>2020-10-08T11:14:16Z</time>
      </trkpt>
      <trkpt lat="46.9816" lon="5.85762">
        <ele>372</ele>
        <time>2020-10-08T11:14:22Z</time>
      </trkpt>
      <trkpt lat="46.9814" lon="5.85711">
        <ele>369</ele>
        <time>2020-10-08T11:14:58Z</time>
      </trkpt>
      <trkpt lat="46.98133" lon="5.85689">
        <ele>370</ele>
        <time>2020-10-08T11:15:11Z</time>
      </trkpt>
      <trkpt lat="46.98115" lon="5.85667">
        <ele>370</ele>
        <time>2020-10-08T11:15:30Z</time>
      </trkpt>
      <trkpt lat="46.98107" lon="5.85661">
        <ele>371</ele>
        <time>2020-10-08T11:15:37Z</time>
      </trkpt>
      <trkpt lat="46.98105" lon="5.85654">
        <ele>371</ele>
        <time>2020-10-08T11:15:41Z</time>
      </trkpt>
      <trkpt lat="46.98101" lon="5.85648">
        <ele>371</ele>
        <time>2020-10-08T11:15:47Z</time>
      </trkpt>
      <trkpt lat="46.98082" lon="5.85641">
        <ele>372</ele>
        <time>2020-10-08T11:16:02Z</time>
      </trkpt>
      <trkpt lat="46.98054" lon="5.85608">
        <ele>371</ele>
        <time>2020-10-08T11:16:33Z</time>
      </trkpt>
      <trkpt lat="46.98048" lon="5.85595">
        <ele>370</ele>
        <time>2020-10-08T11:16:46Z</time>
      </trkpt>
      <trkpt lat="46.98043" lon="5.85585">
        <ele>370</ele>
        <time>2020-10-08T11:16:52Z</time>
      </trkpt>
      <trkpt lat="46.98032" lon="5.8557">
        <ele>369</ele>
        <time>2020-10-08T11:17:03Z</time>
      </trkpt>
      <trkpt lat="46.98024" lon="5.85564">
        <ele>369</ele>
        <time>2020-10-08T11:17:10Z</time>
      </trkpt>
      <trkpt lat="46.98007" lon="5.85541">
        <ele>369</ele>
        <time>2020-10-08T11:17:36Z</time>
      </trkpt>
      <trkpt lat="46.97996" lon="5.85524">
        <ele>369</ele>
        <time>2020-10-08T11:17:49Z</time>
      </trkpt>
      <trkpt lat="46.97974" lon="5.8548">
        <ele>368</ele>
        <time>2020-10-08T11:18:21Z</time>
      </trkpt>
      <trkpt lat="46.97969" lon="5.85476">
        <ele>368</ele>
        <time>2020-10-08T11:18:26Z</time>
      </trkpt>
      <trkpt lat="46.97962" lon="5.85474">
        <ele>368</ele>
        <time>2020-10-08T11:18:46Z</time>
      </trkpt>
      <trkpt lat="46.97961" lon="5.85464">
        <ele>366</ele>
        <time>2020-10-08T11:20:34Z</time>
      </trkpt>
      <trkpt lat="46.97971" lon="5.85468">
        <ele>366</ele>
        <time>2020-10-08T11:21:16Z</time>
      </trkpt>
      <trkpt lat="46.9797" lon="5.85479">
        <ele>366</ele>
        <time>2020-10-08T11:21:40Z</time>
      </trkpt>
      <trkpt lat="46.9796" lon="5.85468">
        <ele>366</ele>
        <time>2020-10-08T11:22:13Z</time>
      </trkpt>
      <trkpt lat="46.97962" lon="5.85478">
        <ele>367</ele>
        <time>2020-10-08T11:23:43Z</time>
      </trkpt>
      <trkpt lat="46.9797" lon="5.85474">
        <ele>367</ele>
        <time>2020-10-08T11:24:31Z</time>
      </trkpt>
      <trkpt lat="46.97971" lon="5.85468">
        <ele>365</ele>
        <time>2020-10-08T11:30:11Z</time>
      </trkpt>
      <trkpt lat="46.97965" lon="5.85463">
        <ele>364</ele>
        <time>2020-10-08T11:32:40Z</time>
      </trkpt>
      <trkpt lat="46.9796" lon="5.85459">
        <ele>365</ele>
        <time>2020-10-08T11:32:48Z</time>
      </trkpt>
      <trkpt lat="46.97957" lon="5.85453">
        <ele>365</ele>
        <time>2020-10-08T11:32:54Z</time>
      </trkpt>
      <trkpt lat="46.97952" lon="5.85444">
        <ele>364</ele>
        <time>2020-10-08T11:33:01Z</time>
      </trkpt>
      <trkpt lat="46.97951" lon="5.85435">
        <ele>363</ele>
        <time>2020-10-08T11:33:09Z</time>
      </trkpt>
      <trkpt lat="46.9795" lon="5.85427">
        <ele>363</ele>
        <time>2020-10-08T11:33:15Z</time>
      </trkpt>
      <trkpt lat="46.97944" lon="5.8541">
        <ele>362</ele>
        <time>2020-10-08T11:33:27Z</time>
      </trkpt>
      <trkpt lat="46.97944" lon="5.85401">
        <ele>362</ele>
        <time>2020-10-08T11:33:32Z</time>
      </trkpt>
      <trkpt lat="46.97938" lon="5.85384">
        <ele>362</ele>
        <time>2020-10-08T11:33:44Z</time>
      </trkpt>
      <trkpt lat="46.97935" lon="5.85366">
        <ele>361</ele>
        <time>2020-10-08T11:33:55Z</time>
      </trkpt>
      <trkpt lat="46.97938" lon="5.8536">
        <ele>361</ele>
        <time>2020-10-08T11:34:11Z</time>
      </trkpt>
      <trkpt lat="46.97936" lon="5.85352">
        <ele>360</ele>
        <time>2020-10-08T11:34:24Z</time>
      </trkpt>
      <trkpt lat="46.97934" lon="5.85342">
        <ele>360</ele>
        <time>2020-10-08T11:34:31Z</time>
      </trkpt>
      <trkpt lat="46.97935" lon="5.85333">
        <ele>360</ele>
        <time>2020-10-08T11:34:35Z</time>
      </trkpt>
      <trkpt lat="46.97933" lon="5.85324">
        <ele>360</ele>
        <time>2020-10-08T11:34:41Z</time>
      </trkpt>
      <trkpt lat="46.97924" lon="5.85312">
        <ele>359</ele>
        <time>2020-10-08T11:34:50Z</time>
      </trkpt>
      <trkpt lat="46.97922" lon="5.85303">
        <ele>358</ele>
        <time>2020-10-08T11:34:56Z</time>
      </trkpt>
      <trkpt lat="46.97907" lon="5.8528">
        <ele>357</ele>
        <time>2020-10-08T11:35:15Z</time>
      </trkpt>
      <trkpt lat="46.97894" lon="5.85268">
        <ele>357</ele>
        <time>2020-10-08T11:35:38Z</time>
      </trkpt>
      <trkpt lat="46.97886" lon="5.85255">
        <ele>356</ele>
        <time>2020-10-08T11:35:48Z</time>
      </trkpt>
      <trkpt lat="46.97881" lon="5.85251">
        <ele>356</ele>
        <time>2020-10-08T11:35:52Z</time>
      </trkpt>
      <trkpt lat="46.97865" lon="5.85224">
        <ele>356</ele>
        <time>2020-10-08T11:36:12Z</time>
      </trkpt>
      <trkpt lat="46.97856" lon="5.8521">
        <ele>357</ele>
        <time>2020-10-08T11:36:22Z</time>
      </trkpt>
      <trkpt lat="46.97853" lon="5.85201">
        <ele>357</ele>
        <time>2020-10-08T11:36:28Z</time>
      </trkpt>
      <trkpt lat="46.97844" lon="5.8519">
        <ele>357</ele>
        <time>2020-10-08T11:36:38Z</time>
      </trkpt>
      <trkpt lat="46.97839" lon="5.85186">
        <ele>357</ele>
        <time>2020-10-08T11:36:43Z</time>
      </trkpt>
      <trkpt lat="46.97835" lon="5.85179">
        <ele>357</ele>
        <time>2020-10-08T11:36:49Z</time>
      </trkpt>
      <trkpt lat="46.97819" lon="5.85151">
        <ele>356</ele>
        <time>2020-10-08T11:37:19Z</time>
      </trkpt>
      <trkpt lat="46.97815" lon="5.8514">
        <ele>356</ele>
        <time>2020-10-08T11:37:40Z</time>
      </trkpt>
      <trkpt lat="46.97813" lon="5.85133">
        <ele>355</ele>
        <time>2020-10-08T11:37:45Z</time>
      </trkpt>
      <trkpt lat="46.97811" lon="5.85101">
        <ele>354</ele>
        <time>2020-10-08T11:38:07Z</time>
      </trkpt>
      <trkpt lat="46.97811" lon="5.85088">
        <ele>354</ele>
        <time>2020-10-08T11:38:18Z</time>
      </trkpt>
      <trkpt lat="46.97809" lon="5.85081">
        <ele>354</ele>
        <time>2020-10-08T11:38:22Z</time>
      </trkpt>
      <trkpt lat="46.97793" lon="5.85056">
        <ele>354</ele>
        <time>2020-10-08T11:38:43Z</time>
      </trkpt>
      <trkpt lat="46.97783" lon="5.8505">
        <ele>354</ele>
        <time>2020-10-08T11:38:53Z</time>
      </trkpt>
      <trkpt lat="46.97777" lon="5.85051">
        <ele>354</ele>
        <time>2020-10-08T11:38:58Z</time>
      </trkpt>
      <trkpt lat="46.97766" lon="5.85058">
        <ele>355</ele>
        <time>2020-10-08T11:39:08Z</time>
      </trkpt>
      <trkpt lat="46.9776" lon="5.85061">
        <ele>356</ele>
        <time>2020-10-08T11:39:13Z</time>
      </trkpt>
      <trkpt lat="46.97741" lon="5.8506">
        <ele>356</ele>
        <time>2020-10-08T11:39:29Z</time>
      </trkpt>
      <trkpt lat="46.97736" lon="5.85058">
        <ele>356</ele>
        <time>2020-10-08T11:39:40Z</time>
      </trkpt>
      <trkpt lat="46.97731" lon="5.85055">
        <ele>355</ele>
        <time>2020-10-08T11:39:46Z</time>
      </trkpt>
      <trkpt lat="46.97724" lon="5.85056">
        <ele>355</ele>
        <time>2020-10-08T11:39:52Z</time>
      </trkpt>
      <trkpt lat="46.97719" lon="5.85057">
        <ele>355</ele>
        <time>2020-10-08T11:39:58Z</time>
      </trkpt>
      <trkpt lat="46.97708" lon="5.85054">
        <ele>354</ele>
        <time>2020-10-08T11:40:07Z</time>
      </trkpt>
      <trkpt lat="46.97702" lon="5.85056">
        <ele>354</ele>
        <time>2020-10-08T11:40:11Z</time>
      </trkpt>
      <trkpt lat="46.97698" lon="5.85053">
        <ele>354</ele>
        <time>2020-10-08T11:40:16Z</time>
      </trkpt>
      <trkpt lat="46.97691" lon="5.85053">
        <ele>354</ele>
        <time>2020-10-08T11:40:21Z</time>
      </trkpt>
      <trkpt lat="46.97674" lon="5.85045">
        <ele>354</ele>
        <time>2020-10-08T11:40:34Z</time>
      </trkpt>
      <trkpt lat="46.97666" lon="5.85045">
        <ele>354</ele>
        <time>2020-10-08T11:40:41Z</time>
      </trkpt>
      <trkpt lat="46.97662" lon="5.85042">
        <ele>354</ele>
        <time>2020-10-08T11:40:45Z</time>
      </trkpt>
      <trkpt lat="46.97636" lon="5.85037">
        <ele>354</ele>
        <time>2020-10-08T11:41:07Z</time>
      </trkpt>
      <trkpt lat="46.97633" lon="5.85034">
        <ele>354</ele>
        <time>2020-10-08T11:41:11Z</time>
      </trkpt>
      <trkpt lat="46.97613" lon="5.85029">
        <ele>355</ele>
        <time>2020-10-08T11:41:24Z</time>
      </trkpt>
      <trkpt lat="46.97609" lon="5.85024">
        <ele>355</ele>
        <time>2020-10-08T11:41:29Z</time>
      </trkpt>
      <trkpt lat="46.97605" lon="5.85018">
        <ele>355</ele>
        <time>2020-10-08T11:41:34Z</time>
      </trkpt>
      <trkpt lat="46.97595" lon="5.85006">
        <ele>356</ele>
        <time>2020-10-08T11:41:43Z</time>
      </trkpt>
      <trkpt lat="46.97592" lon="5.84998">
        <ele>356</ele>
        <time>2020-10-08T11:41:48Z</time>
      </trkpt>
      <trkpt lat="46.97588" lon="5.84992">
        <ele>357</ele>
        <time>2020-10-08T11:41:53Z</time>
      </trkpt>
      <trkpt lat="46.97562" lon="5.84963">
        <ele>357</ele>
        <time>2020-10-08T11:42:26Z</time>
      </trkpt>
      <trkpt lat="46.97558" lon="5.84958">
        <ele>357</ele>
        <time>2020-10-08T11:42:31Z</time>
      </trkpt>
      <trkpt lat="46.97552" lon="5.84956">
        <ele>357</ele>
        <time>2020-10-08T11:42:35Z</time>
      </trkpt>
      <trkpt lat="46.9753" lon="5.84953">
        <ele>356</ele>
        <time>2020-10-08T11:42:54Z</time>
      </trkpt>
      <trkpt lat="46.97519" lon="5.84949">
        <ele>356</ele>
        <time>2020-10-08T11:43:03Z</time>
      </trkpt>
      <trkpt lat="46.97497" lon="5.84946">
        <ele>355</ele>
        <time>2020-10-08T11:43:21Z</time>
      </trkpt>
      <trkpt lat="46.97485" lon="5.84938">
        <ele>356</ele>
        <time>2020-10-08T11:43:44Z</time>
      </trkpt>
      <trkpt lat="46.97466" lon="5.84936">
        <ele>355</ele>
        <time>2020-10-08T11:44:00Z</time>
      </trkpt>
      <trkpt lat="46.97442" lon="5.84938">
        <ele>355</ele>
        <time>2020-10-08T11:44:20Z</time>
      </trkpt>
      <trkpt lat="46.97436" lon="5.84937">
        <ele>355</ele>
        <time>2020-10-08T11:44:25Z</time>
      </trkpt>
      <trkpt lat="46.97425" lon="5.84933">
        <ele>354</ele>
        <time>2020-10-08T11:44:34Z</time>
      </trkpt>
      <trkpt lat="46.97388" lon="5.84926">
        <ele>354</ele>
        <time>2020-10-08T11:45:02Z</time>
      </trkpt>
      <trkpt lat="46.97376" lon="5.84918">
        <ele>354</ele>
        <time>2020-10-08T11:45:15Z</time>
      </trkpt>
      <trkpt lat="46.9735" lon="5.8491">
        <ele>355</ele>
        <time>2020-10-08T11:45:38Z</time>
      </trkpt>
      <trkpt lat="46.97344" lon="5.84907">
        <ele>355</ele>
        <time>2020-10-08T11:45:43Z</time>
      </trkpt>
      <trkpt lat="46.97327" lon="5.84908">
        <ele>355</ele>
        <time>2020-10-08T11:45:57Z</time>
      </trkpt>
      <trkpt lat="46.97304" lon="5.84916">
        <ele>355</ele>
        <time>2020-10-08T11:46:18Z</time>
      </trkpt>
      <trkpt lat="46.97298" lon="5.84921">
        <ele>355</ele>
        <time>2020-10-08T11:46:24Z</time>
      </trkpt>
      <trkpt lat="46.97286" lon="5.84923">
        <ele>355</ele>
        <time>2020-10-08T11:46:34Z</time>
      </trkpt>
      <trkpt lat="46.9727" lon="5.84937">
        <ele>356</ele>
        <time>2020-10-08T11:46:49Z</time>
      </trkpt>
      <trkpt lat="46.97263" lon="5.84936">
        <ele>356</ele>
        <time>2020-10-08T11:46:56Z</time>
      </trkpt>
      <trkpt lat="46.97252" lon="5.84942">
        <ele>357</ele>
        <time>2020-10-08T11:47:07Z</time>
      </trkpt>
      <trkpt lat="46.9724" lon="5.84942">
        <ele>357</ele>
        <time>2020-10-08T11:47:16Z</time>
      </trkpt>
      <trkpt lat="46.97227" lon="5.84952">
        <ele>358</ele>
        <time>2020-10-08T11:47:27Z</time>
      </trkpt>
      <trkpt lat="46.97203" lon="5.84964">
        <ele>359</ele>
        <time>2020-10-08T11:47:49Z</time>
      </trkpt>
      <trkpt lat="46.97199" lon="5.84969">
        <ele>359</ele>
        <time>2020-10-08T11:47:54Z</time>
      </trkpt>
      <trkpt lat="46.97193" lon="5.84971">
        <ele>360</ele>
        <time>2020-10-08T11:47:59Z</time>
      </trkpt>
      <trkpt lat="46.97182" lon="5.84976">
        <ele>361</ele>
        <time>2020-10-08T11:48:10Z</time>
      </trkpt>
      <trkpt lat="46.97162" lon="5.84983">
        <ele>362</ele>
        <time>2020-10-08T11:48:31Z</time>
      </trkpt>
      <trkpt lat="46.9715" lon="5.84981">
        <ele>364</ele>
        <time>2020-10-08T11:48:44Z</time>
      </trkpt>
      <trkpt lat="46.97147" lon="5.84979">
        <ele>364</ele>
        <time>2020-10-08T11:48:47Z</time>
      </trkpt>
      <trkpt lat="46.97143" lon="5.84979">
        <ele>365</ele>
        <time>2020-10-08T11:48:51Z</time>
      </trkpt>
      <trkpt lat="46.97136" lon="5.84977">
        <ele>366</ele>
        <time>2020-10-08T11:48:59Z</time>
      </trkpt>
      <trkpt lat="46.9713" lon="5.84978">
        <ele>367</ele>
        <time>2020-10-08T11:49:07Z</time>
      </trkpt>
      <trkpt lat="46.97113" lon="5.8498">
        <ele>369</ele>
        <time>2020-10-08T11:49:24Z</time>
      </trkpt>
      <trkpt lat="46.97107" lon="5.84984">
        <ele>370</ele>
        <time>2020-10-08T11:49:33Z</time>
      </trkpt>
      <trkpt lat="46.971" lon="5.84988">
        <ele>371</ele>
        <time>2020-10-08T11:49:39Z</time>
      </trkpt>
      <trkpt lat="46.97093" lon="5.84987">
        <ele>371</ele>
        <time>2020-10-08T11:49:47Z</time>
      </trkpt>
      <trkpt lat="46.97088" lon="5.84992">
        <ele>372</ele>
        <time>2020-10-08T11:49:55Z</time>
      </trkpt>
      <trkpt lat="46.97082" lon="5.84993">
        <ele>373</ele>
        <time>2020-10-08T11:50:00Z</time>
      </trkpt>
      <trkpt lat="46.97069" lon="5.8499">
        <ele>375</ele>
        <time>2020-10-08T11:50:17Z</time>
      </trkpt>
      <trkpt lat="46.97064" lon="5.84983">
        <ele>375</ele>
        <time>2020-10-08T11:50:25Z</time>
      </trkpt>
      <trkpt lat="46.97059" lon="5.84963">
        <ele>377</ele>
        <time>2020-10-08T11:50:38Z</time>
      </trkpt>
      <trkpt lat="46.97051" lon="5.84953">
        <ele>378</ele>
        <time>2020-10-08T11:50:50Z</time>
      </trkpt>
      <trkpt lat="46.97041" lon="5.84934">
        <ele>380</ele>
        <time>2020-10-08T11:51:11Z</time>
      </trkpt>
      <trkpt lat="46.97041" lon="5.8493">
        <ele>380</ele>
        <time>2020-10-08T11:53:29Z</time>
      </trkpt>
      <trkpt lat="46.97031" lon="5.84918">
        <ele>380</ele>
        <time>2020-10-08T11:53:43Z</time>
      </trkpt>
      <trkpt lat="46.96997" lon="5.84909">
        <ele>383</ele>
        <time>2020-10-08T11:54:16Z</time>
      </trkpt>
      <trkpt lat="46.96989" lon="5.8491">
        <ele>384</ele>
        <time>2020-10-08T11:54:26Z</time>
      </trkpt>
      <trkpt lat="46.96982" lon="5.84907">
        <ele>385</ele>
        <time>2020-10-08T11:54:32Z</time>
      </trkpt>
      <trkpt lat="46.96973" lon="5.84906">
        <ele>385</ele>
        <time>2020-10-08T11:54:40Z</time>
      </trkpt>
      <trkpt lat="46.96939" lon="5.84896">
        <ele>386</ele>
        <time>2020-10-08T11:55:11Z</time>
      </trkpt>
      <trkpt lat="46.96933" lon="5.84891">
        <ele>386</ele>
        <time>2020-10-08T11:55:17Z</time>
      </trkpt>
      <trkpt lat="46.96924" lon="5.84889">
        <ele>386</ele>
        <time>2020-10-08T11:55:25Z</time>
      </trkpt>
      <trkpt lat="46.96907" lon="5.84892">
        <ele>386</ele>
        <time>2020-10-08T11:55:39Z</time>
      </trkpt>
      <trkpt lat="46.96893" lon="5.8489">
        <ele>386</ele>
        <time>2020-10-08T11:55:50Z</time>
      </trkpt>
      <trkpt lat="46.96887" lon="5.84888">
        <ele>386</ele>
        <time>2020-10-08T11:55:55Z</time>
      </trkpt>
      <trkpt lat="46.9686" lon="5.84882">
        <ele>386</ele>
        <time>2020-10-08T11:56:19Z</time>
      </trkpt>
      <trkpt lat="46.96821" lon="5.84886">
        <ele>386</ele>
        <time>2020-10-08T11:56:51Z</time>
      </trkpt>
      <trkpt lat="46.96812" lon="5.84889">
        <ele>385</ele>
        <time>2020-10-08T11:57:02Z</time>
      </trkpt>
      <trkpt lat="46.96805" lon="5.84892">
        <ele>386</ele>
        <time>2020-10-08T11:57:08Z</time>
      </trkpt>
      <trkpt lat="46.96792" lon="5.84897">
        <ele>387</ele>
        <time>2020-10-08T11:57:25Z</time>
      </trkpt>
      <trkpt lat="46.96781" lon="5.84895">
        <ele>387</ele>
        <time>2020-10-08T11:57:34Z</time>
      </trkpt>
      <trkpt lat="46.96768" lon="5.84898">
        <ele>388</ele>
        <time>2020-10-08T11:57:44Z</time>
      </trkpt>
      <trkpt lat="46.96748" lon="5.84894">
        <ele>388</ele>
        <time>2020-10-08T11:57:59Z</time>
      </trkpt>
      <trkpt lat="46.96737" lon="5.84902">
        <ele>388</ele>
        <time>2020-10-08T11:58:08Z</time>
      </trkpt>
      <trkpt lat="46.96731" lon="5.84902">
        <ele>388</ele>
        <time>2020-10-08T11:58:13Z</time>
      </trkpt>
      <trkpt lat="46.96726" lon="5.84904">
        <ele>388</ele>
        <time>2020-10-08T11:58:19Z</time>
      </trkpt>
      <trkpt lat="46.96715" lon="5.84901">
        <ele>389</ele>
        <time>2020-10-08T11:58:27Z</time>
      </trkpt>
      <trkpt lat="46.96703" lon="5.84905">
        <ele>389</ele>
        <time>2020-10-08T11:58:36Z</time>
      </trkpt>
      <trkpt lat="46.96696" lon="5.84903">
        <ele>389</ele>
        <time>2020-10-08T11:58:42Z</time>
      </trkpt>
      <trkpt lat="46.96678" lon="5.84906">
        <ele>390</ele>
        <time>2020-10-08T11:58:59Z</time>
      </trkpt>
      <trkpt lat="46.96672" lon="5.84909">
        <ele>391</ele>
        <time>2020-10-08T11:59:05Z</time>
      </trkpt>
      <trkpt lat="46.96664" lon="5.84912">
        <ele>391</ele>
        <time>2020-10-08T11:59:13Z</time>
      </trkpt>
      <trkpt lat="46.96639" lon="5.8492">
        <ele>389</ele>
        <time>2020-10-08T11:59:35Z</time>
      </trkpt>
      <trkpt lat="46.96621" lon="5.84921">
        <ele>389</ele>
        <time>2020-10-08T11:59:51Z</time>
      </trkpt>
      <trkpt lat="46.96578" lon="5.84939">
        <ele>387</ele>
        <time>2020-10-08T12:00:28Z</time>
      </trkpt>
      <trkpt lat="46.96539" lon="5.84978">
        <ele>386</ele>
        <time>2020-10-08T12:01:07Z</time>
      </trkpt>
      <trkpt lat="46.96535" lon="5.84985">
        <ele>386</ele>
        <time>2020-10-08T12:01:11Z</time>
      </trkpt>
      <trkpt lat="46.96527" lon="5.84998">
        <ele>386</ele>
        <time>2020-10-08T12:01:20Z</time>
      </trkpt>
      <trkpt lat="46.96524" lon="5.85005">
        <ele>387</ele>
        <time>2020-10-08T12:01:25Z</time>
      </trkpt>
      <trkpt lat="46.96519" lon="5.85025">
        <ele>387</ele>
        <time>2020-10-08T12:01:38Z</time>
      </trkpt>
      <trkpt lat="46.96516" lon="5.85034">
        <ele>387</ele>
        <time>2020-10-08T12:01:44Z</time>
      </trkpt>
      <trkpt lat="46.96516" lon="5.85044">
        <ele>387</ele>
        <time>2020-10-08T12:01:49Z</time>
      </trkpt>
      <trkpt lat="46.96512" lon="5.8505">
        <ele>387</ele>
        <time>2020-10-08T12:01:54Z</time>
      </trkpt>
      <trkpt lat="46.9651" lon="5.85061">
        <ele>387</ele>
        <time>2020-10-08T12:02:01Z</time>
      </trkpt>
      <trkpt lat="46.96509" lon="5.85067">
        <ele>387</ele>
        <time>2020-10-08T12:02:05Z</time>
      </trkpt>
      <trkpt lat="46.96507" lon="5.85086">
        <ele>387</ele>
        <time>2020-10-08T12:02:16Z</time>
      </trkpt>
      <trkpt lat="46.96509" lon="5.85097">
        <ele>387</ele>
        <time>2020-10-08T12:02:24Z</time>
      </trkpt>
      <trkpt lat="46.96506" lon="5.85107">
        <ele>387</ele>
        <time>2020-10-08T12:02:34Z</time>
      </trkpt>
      <trkpt lat="46.96508" lon="5.85124">
        <ele>387</ele>
        <time>2020-10-08T12:02:42Z</time>
      </trkpt>
      <trkpt lat="46.96511" lon="5.85143">
        <ele>388</ele>
        <time>2020-10-08T12:02:57Z</time>
      </trkpt>
      <trkpt lat="46.9651" lon="5.85152">
        <ele>388</ele>
        <time>2020-10-08T12:03:03Z</time>
      </trkpt>
      <trkpt lat="46.96512" lon="5.85161">
        <ele>387</ele>
        <time>2020-10-08T12:03:09Z</time>
      </trkpt>
      <trkpt lat="46.96518" lon="5.85175">
        <ele>386</ele>
        <time>2020-10-08T12:03:17Z</time>
      </trkpt>
      <trkpt lat="46.96536" lon="5.85193">
        <ele>384</ele>
        <time>2020-10-08T12:03:48Z</time>
      </trkpt>
      <trkpt lat="46.96544" lon="5.85202">
        <ele>383</ele>
        <time>2020-10-08T12:03:58Z</time>
      </trkpt>
      <trkpt lat="46.96549" lon="5.85211">
        <ele>383</ele>
        <time>2020-10-08T12:04:05Z</time>
      </trkpt>
      <trkpt lat="46.96555" lon="5.85224">
        <ele>382</ele>
        <time>2020-10-08T12:04:15Z</time>
      </trkpt>
      <trkpt lat="46.9657" lon="5.85238">
        <ele>381</ele>
        <time>2020-10-08T12:04:30Z</time>
      </trkpt>
      <trkpt lat="46.96575" lon="5.85247">
        <ele>380</ele>
        <time>2020-10-08T12:04:38Z</time>
      </trkpt>
      <trkpt lat="46.96588" lon="5.85274">
        <ele>379</ele>
        <time>2020-10-08T12:05:00Z</time>
      </trkpt>
      <trkpt lat="46.96589" lon="5.85282">
        <ele>379</ele>
        <time>2020-10-08T12:05:04Z</time>
      </trkpt>
      <trkpt lat="46.96588" lon="5.8529">
        <ele>379</ele>
        <time>2020-10-08T12:05:22Z</time>
      </trkpt>
      <trkpt lat="46.96587" lon="5.85291">
        <ele>381</ele>
        <time>2020-10-08T12:06:58Z</time>
      </trkpt>
      <trkpt lat="46.96576" lon="5.85286">
        <ele>381</ele>
        <time>2020-10-08T12:07:07Z</time>
      </trkpt>
      <trkpt lat="46.96571" lon="5.85283">
        <ele>383</ele>
        <time>2020-10-08T12:07:16Z</time>
      </trkpt>
      <trkpt lat="46.96565" lon="5.8528">
        <ele>383</ele>
        <time>2020-10-08T12:07:21Z</time>
      </trkpt>
      <trkpt lat="46.9654" lon="5.85288">
        <ele>384</ele>
        <time>2020-10-08T12:07:46Z</time>
      </trkpt>
      <trkpt lat="46.96521" lon="5.85287">
        <ele>384</ele>
        <time>2020-10-08T12:08:02Z</time>
      </trkpt>
      <trkpt lat="46.96516" lon="5.85291">
        <ele>384</ele>
        <time>2020-10-08T12:08:08Z</time>
      </trkpt>
      <trkpt lat="46.9651" lon="5.85289">
        <ele>383</ele>
        <time>2020-10-08T12:08:16Z</time>
      </trkpt>
      <trkpt lat="46.96468" lon="5.85293">
        <ele>381</ele>
        <time>2020-10-08T12:08:51Z</time>
      </trkpt>
      <trkpt lat="46.96462" lon="5.85293">
        <ele>381</ele>
        <time>2020-10-08T12:08:55Z</time>
      </trkpt>
      <trkpt lat="46.96455" lon="5.85295">
        <ele>381</ele>
        <time>2020-10-08T12:08:59Z</time>
      </trkpt>
      <trkpt lat="46.96437" lon="5.85307">
        <ele>380</ele>
        <time>2020-10-08T12:09:19Z</time>
      </trkpt>
      <trkpt lat="46.96431" lon="5.8531">
        <ele>380</ele>
        <time>2020-10-08T12:09:24Z</time>
      </trkpt>
      <trkpt lat="46.96425" lon="5.85311">
        <ele>381</ele>
        <time>2020-10-08T12:09:30Z</time>
      </trkpt>
      <trkpt lat="46.96419" lon="5.85315">
        <ele>381</ele>
        <time>2020-10-08T12:09:36Z</time>
      </trkpt>
      <trkpt lat="46.96405" lon="5.85328">
        <ele>381</ele>
        <time>2020-10-08T12:09:58Z</time>
      </trkpt>
      <trkpt lat="46.96392" lon="5.85329">
        <ele>381</ele>
        <time>2020-10-08T12:10:09Z</time>
      </trkpt>
      <trkpt lat="46.96387" lon="5.85332">
        <ele>382</ele>
        <time>2020-10-08T12:10:14Z</time>
      </trkpt>
      <trkpt lat="46.96365" lon="5.85359">
        <ele>382</ele>
        <time>2020-10-08T12:10:41Z</time>
      </trkpt>
      <trkpt lat="46.96332" lon="5.85391">
        <ele>384</ele>
        <time>2020-10-08T12:11:15Z</time>
      </trkpt>
      <trkpt lat="46.96311" lon="5.85409">
        <ele>384</ele>
        <time>2020-10-08T12:11:34Z</time>
      </trkpt>
      <trkpt lat="46.96307" lon="5.85415">
        <ele>385</ele>
        <time>2020-10-08T12:11:40Z</time>
      </trkpt>
      <trkpt lat="46.963" lon="5.85419">
        <ele>385</ele>
        <time>2020-10-08T12:11:48Z</time>
      </trkpt>
      <trkpt lat="46.96294" lon="5.85422">
        <ele>385</ele>
        <time>2020-10-08T12:11:52Z</time>
      </trkpt>
      <trkpt lat="46.96291" lon="5.8543">
        <ele>385</ele>
        <time>2020-10-08T12:11:56Z</time>
      </trkpt>
      <trkpt lat="46.96285" lon="5.85436">
        <ele>385</ele>
        <time>2020-10-08T12:12:04Z</time>
      </trkpt>
      <trkpt lat="46.96273" lon="5.85444">
        <ele>385</ele>
        <time>2020-10-08T12:12:15Z</time>
      </trkpt>
      <trkpt lat="46.96267" lon="5.85447">
        <ele>384</ele>
        <time>2020-10-08T12:12:19Z</time>
      </trkpt>
      <trkpt lat="46.9626" lon="5.85451">
        <ele>384</ele>
        <time>2020-10-08T12:12:26Z</time>
      </trkpt>
      <trkpt lat="46.96257" lon="5.85459">
        <ele>383</ele>
        <time>2020-10-08T12:12:30Z</time>
      </trkpt>
      <trkpt lat="46.96252" lon="5.85462">
        <ele>383</ele>
        <time>2020-10-08T12:12:35Z</time>
      </trkpt>
      <trkpt lat="46.96248" lon="5.85468">
        <ele>382</ele>
        <time>2020-10-08T12:12:40Z</time>
      </trkpt>
      <trkpt lat="46.96244" lon="5.85475">
        <ele>382</ele>
        <time>2020-10-08T12:12:45Z</time>
      </trkpt>
      <trkpt lat="46.9624" lon="5.85479">
        <ele>382</ele>
        <time>2020-10-08T12:12:51Z</time>
      </trkpt>
      <trkpt lat="46.96234" lon="5.85483">
        <ele>381</ele>
        <time>2020-10-08T12:12:56Z</time>
      </trkpt>
      <trkpt lat="46.9623" lon="5.8549">
        <ele>380</ele>
        <time>2020-10-08T12:13:02Z</time>
      </trkpt>
      <trkpt lat="46.96216" lon="5.85495">
        <ele>380</ele>
        <time>2020-10-08T12:13:14Z</time>
      </trkpt>
      <trkpt lat="46.9621" lon="5.85495">
        <ele>379</ele>
        <time>2020-10-08T12:13:19Z</time>
      </trkpt>
      <trkpt lat="46.96202" lon="5.85499">
        <ele>379</ele>
        <time>2020-10-08T12:13:29Z</time>
      </trkpt>
      <trkpt lat="46.96199" lon="5.85499">
        <ele>379</ele>
        <time>2020-10-08T12:14:05Z</time>
      </trkpt>
      <trkpt lat="46.96195" lon="5.855">
        <ele>378</ele>
        <time>2020-10-08T12:15:20Z</time>
      </trkpt>
      <trkpt lat="46.96192" lon="5.85506">
        <ele>378</ele>
        <time>2020-10-08T12:15:24Z</time>
      </trkpt>
      <trkpt lat="46.96187" lon="5.8552">
        <ele>378</ele>
        <time>2020-10-08T12:15:35Z</time>
      </trkpt>
      <trkpt lat="46.96161" lon="5.85549">
        <ele>377</ele>
        <time>2020-10-08T12:16:02Z</time>
      </trkpt>
      <trkpt lat="46.96156" lon="5.8555">
        <ele>377</ele>
        <time>2020-10-08T12:16:14Z</time>
      </trkpt>
      <trkpt lat="46.96141" lon="5.85558">
        <ele>377</ele>
        <time>2020-10-08T12:16:30Z</time>
      </trkpt>
      <trkpt lat="46.96135" lon="5.85563">
        <ele>376</ele>
        <time>2020-10-08T12:16:35Z</time>
      </trkpt>
      <trkpt lat="46.96126" lon="5.85567">
        <ele>375</ele>
        <time>2020-10-08T12:16:45Z</time>
      </trkpt>
      <trkpt lat="46.9612" lon="5.85569">
        <ele>375</ele>
        <time>2020-10-08T12:16:49Z</time>
      </trkpt>
      <trkpt lat="46.9611" lon="5.85579">
        <ele>374</ele>
        <time>2020-10-08T12:17:01Z</time>
      </trkpt>
      <trkpt lat="46.96104" lon="5.85581">
        <ele>373</ele>
        <time>2020-10-08T12:17:06Z</time>
      </trkpt>
      <trkpt lat="46.96083" lon="5.85598">
        <ele>371</ele>
        <time>2020-10-08T12:17:28Z</time>
      </trkpt>
      <trkpt lat="46.96078" lon="5.85601">
        <ele>370</ele>
        <time>2020-10-08T12:17:32Z</time>
      </trkpt>
      <trkpt lat="46.96073" lon="5.85605">
        <ele>370</ele>
        <time>2020-10-08T12:17:37Z</time>
      </trkpt>
      <trkpt lat="46.96067" lon="5.85606">
        <ele>370</ele>
        <time>2020-10-08T12:17:43Z</time>
      </trkpt>
      <trkpt lat="46.96061" lon="5.85611">
        <ele>369</ele>
        <time>2020-10-08T12:17:49Z</time>
      </trkpt>
      <trkpt lat="46.96055" lon="5.85612">
        <ele>369</ele>
        <time>2020-10-08T12:17:54Z</time>
      </trkpt>
      <trkpt lat="46.9605" lon="5.85613">
        <ele>369</ele>
        <time>2020-10-08T12:17:59Z</time>
      </trkpt>
      <trkpt lat="46.96038" lon="5.85615">
        <ele>368</ele>
        <time>2020-10-08T12:18:08Z</time>
      </trkpt>
      <trkpt lat="46.96034" lon="5.85613">
        <ele>367</ele>
        <time>2020-10-08T12:18:12Z</time>
      </trkpt>
      <trkpt lat="46.9603" lon="5.85613">
        <ele>367</ele>
        <time>2020-10-08T12:18:15Z</time>
      </trkpt>
      <trkpt lat="46.96025" lon="5.85614">
        <ele>367</ele>
        <time>2020-10-08T12:18:19Z</time>
      </trkpt>
      <trkpt lat="46.96017" lon="5.85612">
        <ele>366</ele>
        <time>2020-10-08T12:18:27Z</time>
      </trkpt>
      <trkpt lat="46.96013" lon="5.85615">
        <ele>366</ele>
        <time>2020-10-08T12:18:30Z</time>
      </trkpt>
      <trkpt lat="46.96005" lon="5.85617">
        <ele>365</ele>
        <time>2020-10-08T12:18:38Z</time>
      </trkpt>
      <trkpt lat="46.95993" lon="5.85629">
        <ele>364</ele>
        <time>2020-10-08T12:18:52Z</time>
      </trkpt>
      <trkpt lat="46.95989" lon="5.85636">
        <ele>363</ele>
        <time>2020-10-08T12:18:57Z</time>
      </trkpt>
      <trkpt lat="46.95986" lon="5.85644">
        <ele>363</ele>
        <time>2020-10-08T12:19:01Z</time>
      </trkpt>
      <trkpt lat="46.95982" lon="5.85649">
        <ele>363</ele>
        <time>2020-10-08T12:19:07Z</time>
      </trkpt>
      <trkpt lat="46.95973" lon="5.85668">
        <ele>362</ele>
        <time>2020-10-08T12:19:22Z</time>
      </trkpt>
      <trkpt lat="46.95963" lon="5.85682">
        <ele>361</ele>
        <time>2020-10-08T12:19:35Z</time>
      </trkpt>
      <trkpt lat="46.95953" lon="5.85691">
        <ele>361</ele>
        <time>2020-10-08T12:19:46Z</time>
      </trkpt>
      <trkpt lat="46.9595" lon="5.85696">
        <ele>360</ele>
        <time>2020-10-08T12:19:50Z</time>
      </trkpt>
      <trkpt lat="46.95947" lon="5.85699">
        <ele>360</ele>
        <time>2020-10-08T12:19:53Z</time>
      </trkpt>
      <trkpt lat="46.95937" lon="5.85723">
        <ele>359</ele>
        <time>2020-10-08T12:20:09Z</time>
      </trkpt>
      <trkpt lat="46.95935" lon="5.85731">
        <ele>359</ele>
        <time>2020-10-08T12:20:13Z</time>
      </trkpt>
      <trkpt lat="46.95935" lon="5.85737">
        <ele>359</ele>
        <time>2020-10-08T12:20:16Z</time>
      </trkpt>
      <trkpt lat="46.95933" lon="5.85752">
        <ele>358</ele>
        <time>2020-10-08T12:20:25Z</time>
      </trkpt>
      <trkpt lat="46.95934" lon="5.85761">
        <ele>359</ele>
        <time>2020-10-08T12:20:30Z</time>
      </trkpt>
      <trkpt lat="46.95933" lon="5.85769">
        <ele>359</ele>
        <time>2020-10-08T12:20:34Z</time>
      </trkpt>
      <trkpt lat="46.95928" lon="5.85795">
        <ele>358</ele>
        <time>2020-10-08T12:20:51Z</time>
      </trkpt>
      <trkpt lat="46.95924" lon="5.85803">
        <ele>357</ele>
        <time>2020-10-08T12:20:56Z</time>
      </trkpt>
      <trkpt lat="46.95921" lon="5.85811">
        <ele>357</ele>
        <time>2020-10-08T12:21:02Z</time>
      </trkpt>
      <trkpt lat="46.95918" lon="5.85818">
        <ele>358</ele>
        <time>2020-10-08T12:21:06Z</time>
      </trkpt>
      <trkpt lat="46.95906" lon="5.85848">
        <ele>358</ele>
        <time>2020-10-08T12:21:25Z</time>
      </trkpt>
      <trkpt lat="46.959" lon="5.85853">
        <ele>358</ele>
        <time>2020-10-08T12:21:29Z</time>
      </trkpt>
      <trkpt lat="46.95899" lon="5.85861">
        <ele>358</ele>
        <time>2020-10-08T12:21:34Z</time>
      </trkpt>
      <trkpt lat="46.95894" lon="5.85869">
        <ele>358</ele>
        <time>2020-10-08T12:21:40Z</time>
      </trkpt>
      <trkpt lat="46.95888" lon="5.85885">
        <ele>357</ele>
        <time>2020-10-08T12:21:51Z</time>
      </trkpt>
      <trkpt lat="46.95887" lon="5.85893">
        <ele>357</ele>
        <time>2020-10-08T12:21:56Z</time>
      </trkpt>
      <trkpt lat="46.9589" lon="5.85901">
        <ele>357</ele>
        <time>2020-10-08T12:22:20Z</time>
      </trkpt>
      <trkpt lat="46.95886" lon="5.85907">
        <ele>357</ele>
        <time>2020-10-08T12:22:27Z</time>
      </trkpt>
      <trkpt lat="46.9588" lon="5.8591">
        <ele>356</ele>
        <time>2020-10-08T12:22:32Z</time>
      </trkpt>
      <trkpt lat="46.95858" lon="5.85941">
        <ele>353</ele>
        <time>2020-10-08T12:23:00Z</time>
      </trkpt>
      <trkpt lat="46.95837" lon="5.85964">
        <ele>351</ele>
        <time>2020-10-08T12:23:25Z</time>
      </trkpt>
      <trkpt lat="46.95828" lon="5.85975">
        <ele>350</ele>
        <time>2020-10-08T12:23:36Z</time>
      </trkpt>
      <trkpt lat="46.95821" lon="5.85991">
        <ele>349</ele>
        <time>2020-10-08T12:23:47Z</time>
      </trkpt>
      <trkpt lat="46.95805" lon="5.86005">
        <ele>346</ele>
        <time>2020-10-08T12:24:04Z</time>
      </trkpt>
      <trkpt lat="46.95789" lon="5.86011">
        <ele>345</ele>
        <time>2020-10-08T12:24:20Z</time>
      </trkpt>
      <trkpt lat="46.95781" lon="5.86013">
        <ele>344</ele>
        <time>2020-10-08T12:24:26Z</time>
      </trkpt>
      <trkpt lat="46.95776" lon="5.86016">
        <ele>343</ele>
        <time>2020-10-08T12:24:31Z</time>
      </trkpt>
      <trkpt lat="46.9576" lon="5.86024">
        <ele>341</ele>
        <time>2020-10-08T12:24:44Z</time>
      </trkpt>
      <trkpt lat="46.95755" lon="5.86028">
        <ele>341</ele>
        <time>2020-10-08T12:24:49Z</time>
      </trkpt>
      <trkpt lat="46.95751" lon="5.86033">
        <ele>340</ele>
        <time>2020-10-08T12:24:54Z</time>
      </trkpt>
      <trkpt lat="46.95743" lon="5.86047">
        <ele>339</ele>
        <time>2020-10-08T12:25:04Z</time>
      </trkpt>
      <trkpt lat="46.95734" lon="5.86058">
        <ele>338</ele>
        <time>2020-10-08T12:25:13Z</time>
      </trkpt>
      <trkpt lat="46.95719" lon="5.86083">
        <ele>335</ele>
        <time>2020-10-08T12:25:33Z</time>
      </trkpt>
      <trkpt lat="46.95707" lon="5.86096">
        <ele>334</ele>
        <time>2020-10-08T12:25:44Z</time>
      </trkpt>
      <trkpt lat="46.957" lon="5.86109">
        <ele>332</ele>
        <time>2020-10-08T12:25:54Z</time>
      </trkpt>
      <trkpt lat="46.95693" lon="5.86115">
        <ele>332</ele>
        <time>2020-10-08T12:25:59Z</time>
      </trkpt>
      <trkpt lat="46.95682" lon="5.86135">
        <ele>329</ele>
        <time>2020-10-08T12:26:16Z</time>
      </trkpt>
      <trkpt lat="46.95677" lon="5.86137">
        <ele>328</ele>
        <time>2020-10-08T12:26:22Z</time>
      </trkpt>
      <trkpt lat="46.95658" lon="5.86146">
        <ele>325</ele>
        <time>2020-10-08T12:26:41Z</time>
      </trkpt>
      <trkpt lat="46.95656" lon="5.8614">
        <ele>324</ele>
        <time>2020-10-08T12:27:00Z</time>
      </trkpt>
      <trkpt lat="46.9567" lon="5.86124">
        <ele>324</ele>
        <time>2020-10-08T12:27:18Z</time>
      </trkpt>
      <trkpt lat="46.95673" lon="5.86116">
        <ele>324</ele>
        <time>2020-10-08T12:27:23Z</time>
      </trkpt>
      <trkpt lat="46.95699" lon="5.86079">
        <ele>324</ele>
        <time>2020-10-08T12:27:50Z</time>
      </trkpt>
      <trkpt lat="46.95706" lon="5.86074">
        <ele>324</ele>
        <time>2020-10-08T12:27:54Z</time>
      </trkpt>
      <trkpt lat="46.95709" lon="5.86069">
        <ele>324</ele>
        <time>2020-10-08T12:27:58Z</time>
      </trkpt>
      <trkpt lat="46.95713" lon="5.86062">
        <ele>324</ele>
        <time>2020-10-08T12:28:03Z</time>
      </trkpt>
      <trkpt lat="46.95717" lon="5.86057">
        <ele>324</ele>
        <time>2020-10-08T12:28:08Z</time>
      </trkpt>
      <trkpt lat="46.95742" lon="5.86005">
        <ele>324</ele>
        <time>2020-10-08T12:28:41Z</time>
      </trkpt>
      <trkpt lat="46.95762" lon="5.85958">
        <ele>323</ele>
        <time>2020-10-08T12:29:13Z</time>
      </trkpt>
      <trkpt lat="46.95778" lon="5.85924">
        <ele>323</ele>
        <time>2020-10-08T12:29:38Z</time>
      </trkpt>
      <trkpt lat="46.95783" lon="5.85908">
        <ele>323</ele>
        <time>2020-10-08T12:29:47Z</time>
      </trkpt>
      <trkpt lat="46.95789" lon="5.85898">
        <ele>323</ele>
        <time>2020-10-08T12:29:55Z</time>
      </trkpt>
      <trkpt lat="46.95792" lon="5.85892">
        <ele>323</ele>
        <time>2020-10-08T12:30:01Z</time>
      </trkpt>
      <trkpt lat="46.95793" lon="5.85883">
        <ele>323</ele>
        <time>2020-10-08T12:30:05Z</time>
      </trkpt>
      <trkpt lat="46.95811" lon="5.85829">
        <ele>323</ele>
        <time>2020-10-08T12:30:38Z</time>
      </trkpt>
      <trkpt lat="46.95815" lon="5.8582">
        <ele>323</ele>
        <time>2020-10-08T12:30:45Z</time>
      </trkpt>
      <trkpt lat="46.95819" lon="5.85799">
        <ele>323</ele>
        <time>2020-10-08T12:31:01Z</time>
      </trkpt>
      <trkpt lat="46.95839" lon="5.85689">
        <ele>332.9</ele>
      </trkpt>
      <trkpt lat="46.95852" lon="5.85619">
        <ele>321</ele>
        <time>2020-10-08T12:32:37Z</time>
      </trkpt>
      <trkpt lat="46.95866" lon="5.85587">
        <ele>321</ele>
        <time>2020-10-08T12:32:56Z</time>
      </trkpt>
      <trkpt lat="46.9588" lon="5.85524">
        <ele>320</ele>
        <time>2020-10-08T12:33:33Z</time>
      </trkpt>
      <trkpt lat="46.9589" lon="5.85495">
        <ele>320</ele>
        <time>2020-10-08T12:33:51Z</time>
      </trkpt>
      <trkpt lat="46.95891" lon="5.85486">
        <ele>320</ele>
        <time>2020-10-08T12:33:56Z</time>
      </trkpt>
      <trkpt lat="46.95907" lon="5.85427">
        <ele>319</ele>
        <time>2020-10-08T12:34:29Z</time>
      </trkpt>
      <trkpt lat="46.95916" lon="5.85376">
        <ele>319</ele>
        <time>2020-10-08T12:34:59Z</time>
      </trkpt>
      <trkpt lat="46.95922" lon="5.85324">
        <ele>318</ele>
        <time>2020-10-08T12:35:30Z</time>
      </trkpt>
      <trkpt lat="46.95922" lon="5.85316">
        <ele>318</ele>
        <time>2020-10-08T12:35:34Z</time>
      </trkpt>
      <trkpt lat="46.95921" lon="5.85306">
        <ele>318</ele>
        <time>2020-10-08T12:35:40Z</time>
      </trkpt>
      <trkpt lat="46.95924" lon="5.85282">
        <ele>319</ele>
        <time>2020-10-08T12:35:55Z</time>
      </trkpt>
      <trkpt lat="46.95926" lon="5.85265">
        <ele>318</ele>
        <time>2020-10-08T12:36:05Z</time>
      </trkpt>
      <trkpt lat="46.9593" lon="5.85211">
        <ele>318</ele>
        <time>2020-10-08T12:36:36Z</time>
      </trkpt>
      <trkpt lat="46.9593" lon="5.85201">
        <ele>319</ele>
        <time>2020-10-08T12:36:42Z</time>
      </trkpt>
      <trkpt lat="46.95927" lon="5.85201">
        <ele>318</ele>
        <time>2020-10-08T12:36:46Z</time>
      </trkpt>
      <trkpt lat="46.9593" lon="5.85192">
        <ele>318</ele>
        <time>2020-10-08T12:37:05Z</time>
      </trkpt>
      <trkpt lat="46.95933" lon="5.85182">
        <ele>318</ele>
        <time>2020-10-08T12:37:18Z</time>
      </trkpt>
      <trkpt lat="46.95934" lon="5.85174">
        <ele>319</ele>
        <time>2020-10-08T12:37:24Z</time>
      </trkpt>
      <trkpt lat="46.95936" lon="5.85141">
        <ele>318</ele>
        <time>2020-10-08T12:37:43Z</time>
      </trkpt>
      <trkpt lat="46.95936" lon="5.8512">
        <ele>318</ele>
        <time>2020-10-08T12:37:56Z</time>
      </trkpt>
      <trkpt lat="46.95937" lon="5.85112">
        <ele>318</ele>
        <time>2020-10-08T12:38:01Z</time>
      </trkpt>
      <trkpt lat="46.95939" lon="5.85104">
        <ele>317</ele>
        <time>2020-10-08T12:38:16Z</time>
      </trkpt>
      <trkpt lat="46.95937" lon="5.85097">
        <ele>317</ele>
        <time>2020-10-08T12:38:21Z</time>
      </trkpt>
      <trkpt lat="46.95936" lon="5.85088">
        <ele>317</ele>
        <time>2020-10-08T12:38:27Z</time>
      </trkpt>
      <trkpt lat="46.95938" lon="5.85064">
        <ele>318</ele>
        <time>2020-10-08T12:38:40Z</time>
      </trkpt>
      <trkpt lat="46.95942" lon="5.85034">
        <ele>317</ele>
        <time>2020-10-08T12:38:58Z</time>
      </trkpt>
      <trkpt lat="46.9594" lon="5.85004">
        <ele>317</ele>
        <time>2020-10-08T12:39:17Z</time>
      </trkpt>
      <trkpt lat="46.95941" lon="5.84985">
        <ele>317</ele>
        <time>2020-10-08T12:39:30Z</time>
      </trkpt>
      <trkpt lat="46.95944" lon="5.84976">
        <ele>317</ele>
        <time>2020-10-08T12:39:35Z</time>
      </trkpt>
      <trkpt lat="46.95947" lon="5.84946">
        <ele>318</ele>
        <time>2020-10-08T12:39:54Z</time>
      </trkpt>
      <trkpt lat="46.95958" lon="5.84891">
        <ele>320</ele>
        <time>2020-10-08T12:40:28Z</time>
      </trkpt>
      <trkpt lat="46.95959" lon="5.84873">
        <ele>321</ele>
        <time>2020-10-08T12:40:38Z</time>
      </trkpt>
      <trkpt lat="46.95956" lon="5.84857">
        <ele>321</ele>
        <time>2020-10-08T12:40:47Z</time>
      </trkpt>
      <trkpt lat="46.95956" lon="5.8484">
        <ele>322</ele>
        <time>2020-10-08T12:40:56Z</time>
      </trkpt>
      <trkpt lat="46.95955" lon="5.84833">
        <ele>322</ele>
        <time>2020-10-08T12:41:01Z</time>
      </trkpt>
      <trkpt lat="46.95955" lon="5.8482">
        <ele>322</ele>
        <time>2020-10-08T12:41:08Z</time>
      </trkpt>
      <trkpt lat="46.95949" lon="5.84759">
        <ele>322</ele>
        <time>2020-10-08T12:41:42Z</time>
      </trkpt>
      <trkpt lat="46.95948" lon="5.8475">
        <ele>322</ele>
        <time>2020-10-08T12:41:48Z</time>
      </trkpt>
      <trkpt lat="46.95948" lon="5.84741">
        <ele>322</ele>
        <time>2020-10-08T12:41:53Z</time>
      </trkpt>
      <trkpt lat="46.95947" lon="5.84715">
        <ele>322</ele>
        <time>2020-10-08T12:42:07Z</time>
      </trkpt>
      <trkpt lat="46.95947" lon="5.84706">
        <ele>322</ele>
        <time>2020-10-08T12:42:11Z</time>
      </trkpt>
      <trkpt lat="46.95944" lon="5.8468">
        <ele>322</ele>
        <time>2020-10-08T12:42:26Z</time>
      </trkpt>
      <trkpt lat="46.95946" lon="5.84651">
        <ele>322</ele>
        <time>2020-10-08T12:42:43Z</time>
      </trkpt>
      <trkpt lat="46.95945" lon="5.84626">
        <ele>322</ele>
        <time>2020-10-08T12:42:58Z</time>
      </trkpt>
      <trkpt lat="46.95945" lon="5.8462">
        <ele>322</ele>
        <time>2020-10-08T12:44:12Z</time>
      </trkpt>
      <trkpt lat="46.95945" lon="5.84565">
        <ele>321</ele>
        <time>2020-10-08T12:44:44Z</time>
      </trkpt>
      <trkpt lat="46.95943" lon="5.84547">
        <ele>321</ele>
        <time>2020-10-08T12:44:54Z</time>
      </trkpt>
      <trkpt lat="46.95939" lon="5.8453">
        <ele>320</ele>
        <time>2020-10-08T12:45:04Z</time>
      </trkpt>
      <trkpt lat="46.95937" lon="5.8449">
        <ele>319</ele>
        <time>2020-10-08T12:45:29Z</time>
      </trkpt>
      <trkpt lat="46.95938" lon="5.84477">
        <ele>319</ele>
        <time>2020-10-08T12:45:38Z</time>
      </trkpt>
      <trkpt lat="46.95932" lon="5.84443">
        <ele>318</ele>
        <time>2020-10-08T12:45:55Z</time>
      </trkpt>
      <trkpt lat="46.9593" lon="5.84434">
        <ele>317</ele>
        <time>2020-10-08T12:46:00Z</time>
      </trkpt>
      <trkpt lat="46.95915" lon="5.84408">
        <ele>315</ele>
        <time>2020-10-08T12:46:27Z</time>
      </trkpt>
      <trkpt lat="46.95915" lon="5.84405">
        <ele>314</ele>
        <time>2020-10-08T12:48:30Z</time>
      </trkpt>
      <trkpt lat="46.95917" lon="5.84393">
        <ele>313</ele>
        <time>2020-10-08T12:49:16Z</time>
      </trkpt>
      <trkpt lat="46.95918" lon="5.84382">
        <ele>313</ele>
        <time>2020-10-08T12:49:29Z</time>
      </trkpt>
      <trkpt lat="46.95917" lon="5.84364">
        <ele>313</ele>
        <time>2020-10-08T12:49:39Z</time>
      </trkpt>
      <trkpt lat="46.95918" lon="5.84356">
        <ele>313</ele>
        <time>2020-10-08T12:49:44Z</time>
      </trkpt>
      <trkpt lat="46.95918" lon="5.84329">
        <ele>312</ele>
        <time>2020-10-08T12:49:59Z</time>
      </trkpt>
      <trkpt lat="46.95915" lon="5.84313">
        <ele>312</ele>
        <time>2020-10-08T12:50:08Z</time>
      </trkpt>
      <trkpt lat="46.95912" lon="5.84251">
        <ele>312</ele>
        <time>2020-10-08T12:50:43Z</time>
      </trkpt>
      <trkpt lat="46.95909" lon="5.84233">
        <ele>311</ele>
        <time>2020-10-08T12:50:54Z</time>
      </trkpt>
      <trkpt lat="46.9591" lon="5.84224">
        <ele>311</ele>
        <time>2020-10-08T12:51:00Z</time>
      </trkpt>
      <trkpt lat="46.95905" lon="5.84167">
        <ele>311</ele>
        <time>2020-10-08T12:51:33Z</time>
      </trkpt>
      <trkpt lat="46.95903" lon="5.84141">
        <ele>312</ele>
        <time>2020-10-08T12:51:48Z</time>
      </trkpt>
      <trkpt lat="46.95904" lon="5.84113">
        <ele>312</ele>
        <time>2020-10-08T12:52:04Z</time>
      </trkpt>
      <trkpt lat="46.95904" lon="5.84094">
        <ele>313</ele>
        <time>2020-10-08T12:52:16Z</time>
      </trkpt>
      <trkpt lat="46.95907" lon="5.84078">
        <ele>313</ele>
        <time>2020-10-08T12:52:25Z</time>
      </trkpt>
      <trkpt lat="46.95907" lon="5.84069">
        <ele>313</ele>
        <time>2020-10-08T12:52:30Z</time>
      </trkpt>
      <trkpt lat="46.9591" lon="5.8406">
        <ele>313</ele>
        <time>2020-10-08T12:52:35Z</time>
      </trkpt>
      <trkpt lat="46.9591" lon="5.84034">
        <ele>314</ele>
        <time>2020-10-08T12:52:49Z</time>
      </trkpt>
      <trkpt lat="46.95909" lon="5.84008">
        <ele>315</ele>
        <time>2020-10-08T12:53:02Z</time>
      </trkpt>
      <trkpt lat="46.95913" lon="5.83945">
        <ele>316</ele>
        <time>2020-10-08T12:53:36Z</time>
      </trkpt>
      <trkpt lat="46.95918" lon="5.83918">
        <ele>318</ele>
        <time>2020-10-08T12:53:51Z</time>
      </trkpt>
      <trkpt lat="46.95925" lon="5.83893">
        <ele>319</ele>
        <time>2020-10-08T12:54:06Z</time>
      </trkpt>
      <trkpt lat="46.95926" lon="5.83859">
        <ele>320</ele>
        <time>2020-10-08T12:54:26Z</time>
      </trkpt>
      <trkpt lat="46.95926" lon="5.83843">
        <ele>321</ele>
        <time>2020-10-08T12:54:35Z</time>
      </trkpt>
      <trkpt lat="46.9593" lon="5.83825">
        <ele>322</ele>
        <time>2020-10-08T12:54:44Z</time>
      </trkpt>
      <trkpt lat="46.95929" lon="5.8379">
        <ele>323</ele>
        <time>2020-10-08T12:55:02Z</time>
      </trkpt>
      <trkpt lat="46.95932" lon="5.83762">
        <ele>324</ele>
        <time>2020-10-08T12:55:19Z</time>
      </trkpt>
      <trkpt lat="46.95934" lon="5.83754">
        <ele>324</ele>
        <time>2020-10-08T12:55:23Z</time>
      </trkpt>
      <trkpt lat="46.95933" lon="5.83745">
        <ele>324</ele>
        <time>2020-10-08T12:55:28Z</time>
      </trkpt>
      <trkpt lat="46.95939" lon="5.8372">
        <ele>325</ele>
        <time>2020-10-08T12:55:42Z</time>
      </trkpt>
      <trkpt lat="46.95938" lon="5.83668">
        <ele>327</ele>
        <time>2020-10-08T12:56:14Z</time>
      </trkpt>
      <trkpt lat="46.95936" lon="5.8366">
        <ele>327</ele>
        <time>2020-10-08T12:56:19Z</time>
      </trkpt>
      <trkpt lat="46.95919" lon="5.83634">
        <ele>327</ele>
        <time>2020-10-08T12:56:41Z</time>
      </trkpt>
      <trkpt lat="46.9591" lon="5.83631">
        <ele>327</ele>
        <time>2020-10-08T12:56:51Z</time>
      </trkpt>
    </trkseg>
  </trk>
</gpx>